<?xml version="1.0" encoding="UTF-8" standalone="no" ?>
<gpx xmlns="http://www.topografix.com/GPX/1/1" xmlns:xsi="http://www.w3.org/2001/XMLSchema-instance" xsi:schemaLocation="http://www.topografix.com/GPX/1/1 http://www.topografix.com/GPX/1/1/gpx.xsd" version="1.1" creator="VisuGPX - https://www.visugpx.com">
  <metadata>
    <name>Balade du 29/01/12</name>
    <desc><![CDATA[Courte balade en foret à Notre Dame de Bondeville. ]]></desc>
  </metadata>
  <trk>
    <name><![CDATA[29/01/12 09:40]]></name>
    <desc><![CDATA[]]></desc>
    <trkseg>
      <trkpt lat="49.49042" lon="1.04873">
        <ele>65</ele>
        <time>2012-01-30T08:40:53Z</time>
      </trkpt>
      <trkpt lat="49.49042" lon="1.04873">
        <ele>65</ele>
        <time>2012-01-30T08:40:53Z</time>
      </trkpt>
      <trkpt lat="49.49042" lon="1.04873">
        <ele>65</ele>
        <time>2012-01-30T08:40:55Z</time>
      </trkpt>
      <trkpt lat="49.49044" lon="1.04889">
        <ele>54</ele>
        <time>2012-01-30T08:40:56Z</time>
      </trkpt>
      <trkpt lat="49.49044" lon="1.04889">
        <ele>54</ele>
        <time>2012-01-30T08:40:56Z</time>
      </trkpt>
      <trkpt lat="49.49044" lon="1.04889">
        <ele>54</ele>
        <time>2012-01-30T08:41:11Z</time>
      </trkpt>
      <trkpt lat="49.49044" lon="1.04904">
        <ele>82</ele>
        <time>2012-01-30T08:41:12Z</time>
      </trkpt>
      <trkpt lat="49.49044" lon="1.04904">
        <ele>82</ele>
        <time>2012-01-30T08:41:12Z</time>
      </trkpt>
      <trkpt lat="49.49044" lon="1.04904">
        <ele>82</ele>
        <time>2012-01-30T08:41:21Z</time>
      </trkpt>
      <trkpt lat="49.4904" lon="1.0491">
        <ele>87</ele>
        <time>2012-01-30T08:41:34Z</time>
      </trkpt>
      <trkpt lat="49.49035" lon="1.04912">
        <ele>86</ele>
        <time>2012-01-30T08:41:36Z</time>
      </trkpt>
      <trkpt lat="49.49029" lon="1.04913">
        <ele>88</ele>
        <time>2012-01-30T08:41:38Z</time>
      </trkpt>
      <trkpt lat="49.49023" lon="1.04914">
        <ele>85</ele>
        <time>2012-01-30T08:41:40Z</time>
      </trkpt>
      <trkpt lat="49.49017" lon="1.04916">
        <ele>85</ele>
        <time>2012-01-30T08:41:42Z</time>
      </trkpt>
      <trkpt lat="49.4901" lon="1.04919">
        <ele>84</ele>
        <time>2012-01-30T08:41:44Z</time>
      </trkpt>
      <trkpt lat="49.49002" lon="1.04919">
        <ele>86</ele>
        <time>2012-01-30T08:41:46Z</time>
      </trkpt>
      <trkpt lat="49.48995" lon="1.04921">
        <ele>87</ele>
        <time>2012-01-30T08:41:48Z</time>
      </trkpt>
      <trkpt lat="49.4899" lon="1.04923">
        <ele>85</ele>
        <time>2012-01-30T08:41:50Z</time>
      </trkpt>
      <trkpt lat="49.48985" lon="1.04926">
        <ele>86</ele>
        <time>2012-01-30T08:41:52Z</time>
      </trkpt>
      <trkpt lat="49.48981" lon="1.04929">
        <ele>87</ele>
        <time>2012-01-30T08:41:56Z</time>
      </trkpt>
      <trkpt lat="49.48983" lon="1.04939">
        <ele>79</ele>
        <time>2012-01-30T08:42:03Z</time>
      </trkpt>
      <trkpt lat="49.48986" lon="1.04946">
        <ele>80</ele>
        <time>2012-01-30T08:42:05Z</time>
      </trkpt>
      <trkpt lat="49.48988" lon="1.04955">
        <ele>80</ele>
        <time>2012-01-30T08:42:07Z</time>
      </trkpt>
      <trkpt lat="49.48991" lon="1.04963">
        <ele>79</ele>
        <time>2012-01-30T08:42:09Z</time>
      </trkpt>
      <trkpt lat="49.48993" lon="1.04973">
        <ele>79</ele>
        <time>2012-01-30T08:42:11Z</time>
      </trkpt>
      <trkpt lat="49.48997" lon="1.04986">
        <ele>79</ele>
        <time>2012-01-30T08:42:15Z</time>
      </trkpt>
      <trkpt lat="49.49001" lon="1.04994">
        <ele>77</ele>
        <time>2012-01-30T08:42:18Z</time>
      </trkpt>
      <trkpt lat="49.49005" lon="1.04998">
        <ele>78</ele>
        <time>2012-01-30T08:42:20Z</time>
      </trkpt>
      <trkpt lat="49.49012" lon="1.04999">
        <ele>74</ele>
        <time>2012-01-30T08:42:23Z</time>
      </trkpt>
      <trkpt lat="49.49017" lon="1.05001">
        <ele>75</ele>
        <time>2012-01-30T08:42:27Z</time>
      </trkpt>
      <trkpt lat="49.49021" lon="1.05005">
        <ele>77</ele>
        <time>2012-01-30T08:42:31Z</time>
      </trkpt>
      <trkpt lat="49.49026" lon="1.05008">
        <ele>74</ele>
        <time>2012-01-30T08:42:34Z</time>
      </trkpt>
      <trkpt lat="49.49033" lon="1.05009">
        <ele>67</ele>
        <time>2012-01-30T08:42:36Z</time>
      </trkpt>
      <trkpt lat="49.4904" lon="1.0501">
        <ele>67</ele>
        <time>2012-01-30T08:42:38Z</time>
      </trkpt>
      <trkpt lat="49.49046" lon="1.0501">
        <ele>79</ele>
        <time>2012-01-30T08:42:43Z</time>
      </trkpt>
      <trkpt lat="49.4905" lon="1.05013">
        <ele>78</ele>
        <time>2012-01-30T08:42:45Z</time>
      </trkpt>
      <trkpt lat="49.49054" lon="1.05017">
        <ele>74</ele>
        <time>2012-01-30T08:42:49Z</time>
      </trkpt>
      <trkpt lat="49.4905" lon="1.05015">
        <ele>82</ele>
        <time>2012-01-30T08:43:04Z</time>
      </trkpt>
      <trkpt lat="49.49046" lon="1.0501">
        <ele>82</ele>
        <time>2012-01-30T08:43:06Z</time>
      </trkpt>
      <trkpt lat="49.49041" lon="1.05007">
        <ele>86</ele>
        <time>2012-01-30T08:43:09Z</time>
      </trkpt>
      <trkpt lat="49.49035" lon="1.05008">
        <ele>91</ele>
        <time>2012-01-30T08:43:12Z</time>
      </trkpt>
      <trkpt lat="49.49029" lon="1.05011">
        <ele>89</ele>
        <time>2012-01-30T08:43:15Z</time>
      </trkpt>
      <trkpt lat="49.49024" lon="1.05014">
        <ele>94</ele>
        <time>2012-01-30T08:43:18Z</time>
      </trkpt>
      <trkpt lat="49.49018" lon="1.05016">
        <ele>104</ele>
        <time>2012-01-30T08:43:23Z</time>
      </trkpt>
      <trkpt lat="49.49012" lon="1.05015">
        <ele>115</ele>
        <time>2012-01-30T08:43:27Z</time>
      </trkpt>
      <trkpt lat="49.49006" lon="1.05016">
        <ele>121</ele>
        <time>2012-01-30T08:43:30Z</time>
      </trkpt>
      <trkpt lat="49.49" lon="1.05017">
        <ele>119</ele>
        <time>2012-01-30T08:43:33Z</time>
      </trkpt>
      <trkpt lat="49.48994" lon="1.05018">
        <ele>114</ele>
        <time>2012-01-30T08:43:36Z</time>
      </trkpt>
      <trkpt lat="49.48989" lon="1.05019">
        <ele>102</ele>
        <time>2012-01-30T08:43:40Z</time>
      </trkpt>
      <trkpt lat="49.48982" lon="1.0502">
        <ele>96</ele>
        <time>2012-01-30T08:43:43Z</time>
      </trkpt>
      <trkpt lat="49.48976" lon="1.05023">
        <ele>90</ele>
        <time>2012-01-30T08:43:45Z</time>
      </trkpt>
      <trkpt lat="49.4897" lon="1.05025">
        <ele>90</ele>
        <time>2012-01-30T08:43:47Z</time>
      </trkpt>
      <trkpt lat="49.48964" lon="1.05026">
        <ele>82</ele>
        <time>2012-01-30T08:43:49Z</time>
      </trkpt>
      <trkpt lat="49.48959" lon="1.05028">
        <ele>82</ele>
        <time>2012-01-30T08:43:51Z</time>
      </trkpt>
      <trkpt lat="49.48954" lon="1.0503">
        <ele>80</ele>
        <time>2012-01-30T08:43:53Z</time>
      </trkpt>
      <trkpt lat="49.48949" lon="1.05033">
        <ele>80</ele>
        <time>2012-01-30T08:43:55Z</time>
      </trkpt>
      <trkpt lat="49.48944" lon="1.05038">
        <ele>80</ele>
        <time>2012-01-30T08:43:57Z</time>
      </trkpt>
      <trkpt lat="49.48939" lon="1.0504">
        <ele>82</ele>
        <time>2012-01-30T08:43:59Z</time>
      </trkpt>
      <trkpt lat="49.48934" lon="1.05041">
        <ele>83</ele>
        <time>2012-01-30T08:44:01Z</time>
      </trkpt>
      <trkpt lat="49.48929" lon="1.05042">
        <ele>78</ele>
        <time>2012-01-30T08:44:03Z</time>
      </trkpt>
      <trkpt lat="49.48923" lon="1.05044">
        <ele>78</ele>
        <time>2012-01-30T08:44:05Z</time>
      </trkpt>
      <trkpt lat="49.48918" lon="1.05044">
        <ele>74</ele>
        <time>2012-01-30T08:44:07Z</time>
      </trkpt>
      <trkpt lat="49.48913" lon="1.05046">
        <ele>78</ele>
        <time>2012-01-30T08:44:10Z</time>
      </trkpt>
      <trkpt lat="49.48907" lon="1.0505">
        <ele>76</ele>
        <time>2012-01-30T08:44:13Z</time>
      </trkpt>
      <trkpt lat="49.48904" lon="1.05055">
        <ele>78</ele>
        <time>2012-01-30T08:44:15Z</time>
      </trkpt>
      <trkpt lat="49.489" lon="1.05062">
        <ele>79</ele>
        <time>2012-01-30T08:44:17Z</time>
      </trkpt>
      <trkpt lat="49.48896" lon="1.0507">
        <ele>81</ele>
        <time>2012-01-30T08:44:20Z</time>
      </trkpt>
      <trkpt lat="49.48895" lon="1.05079">
        <ele>80</ele>
        <time>2012-01-30T08:44:22Z</time>
      </trkpt>
      <trkpt lat="49.48895" lon="1.05086">
        <ele>78</ele>
        <time>2012-01-30T08:44:25Z</time>
      </trkpt>
      <trkpt lat="49.48897" lon="1.05093">
        <ele>79</ele>
        <time>2012-01-30T08:44:27Z</time>
      </trkpt>
      <trkpt lat="49.489" lon="1.05099">
        <ele>84</ele>
        <time>2012-01-30T08:44:29Z</time>
      </trkpt>
      <trkpt lat="49.48904" lon="1.05106">
        <ele>84</ele>
        <time>2012-01-30T08:44:31Z</time>
      </trkpt>
      <trkpt lat="49.48908" lon="1.0511">
        <ele>82</ele>
        <time>2012-01-30T08:44:35Z</time>
      </trkpt>
      <trkpt lat="49.48914" lon="1.05111">
        <ele>84</ele>
        <time>2012-01-30T08:44:39Z</time>
      </trkpt>
      <trkpt lat="49.48919" lon="1.05111">
        <ele>86</ele>
        <time>2012-01-30T08:44:42Z</time>
      </trkpt>
      <trkpt lat="49.48924" lon="1.05111">
        <ele>82</ele>
        <time>2012-01-30T08:44:45Z</time>
      </trkpt>
      <trkpt lat="49.48928" lon="1.05112">
        <ele>91</ele>
        <time>2012-01-30T08:44:48Z</time>
      </trkpt>
      <trkpt lat="49.48933" lon="1.05113">
        <ele>91</ele>
        <time>2012-01-30T08:44:52Z</time>
      </trkpt>
      <trkpt lat="49.48938" lon="1.05111">
        <ele>92</ele>
        <time>2012-01-30T08:44:55Z</time>
      </trkpt>
      <trkpt lat="49.48943" lon="1.05112">
        <ele>95</ele>
        <time>2012-01-30T08:44:58Z</time>
      </trkpt>
      <trkpt lat="49.48946" lon="1.05106">
        <ele>96</ele>
        <time>2012-01-30T08:45:10Z</time>
      </trkpt>
      <trkpt lat="49.48951" lon="1.05104">
        <ele>94</ele>
        <time>2012-01-30T08:45:14Z</time>
      </trkpt>
      <trkpt lat="49.48957" lon="1.05105">
        <ele>104</ele>
        <time>2012-01-30T08:45:17Z</time>
      </trkpt>
      <trkpt lat="49.48962" lon="1.05108">
        <ele>105</ele>
        <time>2012-01-30T08:45:19Z</time>
      </trkpt>
      <trkpt lat="49.48967" lon="1.0511">
        <ele>105</ele>
        <time>2012-01-30T08:45:21Z</time>
      </trkpt>
      <trkpt lat="49.48972" lon="1.0511">
        <ele>107</ele>
        <time>2012-01-30T08:45:23Z</time>
      </trkpt>
      <trkpt lat="49.48978" lon="1.0511">
        <ele>109</ele>
        <time>2012-01-30T08:45:26Z</time>
      </trkpt>
      <trkpt lat="49.48983" lon="1.0511">
        <ele>110</ele>
        <time>2012-01-30T08:45:29Z</time>
      </trkpt>
      <trkpt lat="49.48988" lon="1.05111">
        <ele>110</ele>
        <time>2012-01-30T08:45:32Z</time>
      </trkpt>
      <trkpt lat="49.48994" lon="1.05112">
        <ele>110</ele>
        <time>2012-01-30T08:45:35Z</time>
      </trkpt>
      <trkpt lat="49.49" lon="1.05113">
        <ele>113</ele>
        <time>2012-01-30T08:45:38Z</time>
      </trkpt>
      <trkpt lat="49.49005" lon="1.05113">
        <ele>119</ele>
        <time>2012-01-30T08:45:40Z</time>
      </trkpt>
      <trkpt lat="49.4901" lon="1.05113">
        <ele>111</ele>
        <time>2012-01-30T08:45:43Z</time>
      </trkpt>
      <trkpt lat="49.4901" lon="1.05121">
        <ele>109</ele>
        <time>2012-01-30T08:45:47Z</time>
      </trkpt>
      <trkpt lat="49.49004" lon="1.05121">
        <ele>114</ele>
        <time>2012-01-30T08:45:49Z</time>
      </trkpt>
      <trkpt lat="49.49007" lon="1.05115">
        <ele>90</ele>
        <time>2012-01-30T08:46:15Z</time>
      </trkpt>
      <trkpt lat="49.49011" lon="1.05119">
        <ele>81</ele>
        <time>2012-01-30T08:46:22Z</time>
      </trkpt>
      <trkpt lat="49.49015" lon="1.05124">
        <ele>77</ele>
        <time>2012-01-30T08:46:24Z</time>
      </trkpt>
      <trkpt lat="49.49018" lon="1.0513">
        <ele>73</ele>
        <time>2012-01-30T08:46:27Z</time>
      </trkpt>
      <trkpt lat="49.4902" lon="1.05138">
        <ele>72</ele>
        <time>2012-01-30T08:46:30Z</time>
      </trkpt>
      <trkpt lat="49.49019" lon="1.05146">
        <ele>72</ele>
        <time>2012-01-30T08:46:34Z</time>
      </trkpt>
      <trkpt lat="49.49018" lon="1.05154">
        <ele>73</ele>
        <time>2012-01-30T08:46:38Z</time>
      </trkpt>
      <trkpt lat="49.49014" lon="1.05161">
        <ele>76</ele>
        <time>2012-01-30T08:46:41Z</time>
      </trkpt>
      <trkpt lat="49.4901" lon="1.05168">
        <ele>81</ele>
        <time>2012-01-30T08:46:44Z</time>
      </trkpt>
      <trkpt lat="49.49006" lon="1.05172">
        <ele>92</ele>
        <time>2012-01-30T08:46:46Z</time>
      </trkpt>
      <trkpt lat="49.49002" lon="1.05176">
        <ele>98</ele>
        <time>2012-01-30T08:46:48Z</time>
      </trkpt>
      <trkpt lat="49.48997" lon="1.05182">
        <ele>96</ele>
        <time>2012-01-30T08:46:51Z</time>
      </trkpt>
      <trkpt lat="49.48992" lon="1.05186">
        <ele>95</ele>
        <time>2012-01-30T08:46:54Z</time>
      </trkpt>
      <trkpt lat="49.48987" lon="1.05189">
        <ele>91</ele>
        <time>2012-01-30T08:46:57Z</time>
      </trkpt>
      <trkpt lat="49.48982" lon="1.05192">
        <ele>88</ele>
        <time>2012-01-30T08:47:00Z</time>
      </trkpt>
      <trkpt lat="49.48977" lon="1.05196">
        <ele>83</ele>
        <time>2012-01-30T08:47:04Z</time>
      </trkpt>
      <trkpt lat="49.48972" lon="1.05198">
        <ele>78</ele>
        <time>2012-01-30T08:47:08Z</time>
      </trkpt>
      <trkpt lat="49.48967" lon="1.05201">
        <ele>80</ele>
        <time>2012-01-30T08:47:12Z</time>
      </trkpt>
      <trkpt lat="49.48962" lon="1.05204">
        <ele>86</ele>
        <time>2012-01-30T08:47:16Z</time>
      </trkpt>
      <trkpt lat="49.48958" lon="1.05207">
        <ele>90</ele>
        <time>2012-01-30T08:47:19Z</time>
      </trkpt>
      <trkpt lat="49.48953" lon="1.05208">
        <ele>96</ele>
        <time>2012-01-30T08:47:22Z</time>
      </trkpt>
      <trkpt lat="49.48948" lon="1.0521">
        <ele>94</ele>
        <time>2012-01-30T08:47:26Z</time>
      </trkpt>
      <trkpt lat="49.48943" lon="1.05212">
        <ele>90</ele>
        <time>2012-01-30T08:47:30Z</time>
      </trkpt>
      <trkpt lat="49.48937" lon="1.05216">
        <ele>91</ele>
        <time>2012-01-30T08:47:35Z</time>
      </trkpt>
      <trkpt lat="49.48933" lon="1.05219">
        <ele>93</ele>
        <time>2012-01-30T08:47:38Z</time>
      </trkpt>
      <trkpt lat="49.48928" lon="1.05222">
        <ele>92</ele>
        <time>2012-01-30T08:47:42Z</time>
      </trkpt>
      <trkpt lat="49.48924" lon="1.05224">
        <ele>98</ele>
        <time>2012-01-30T08:47:46Z</time>
      </trkpt>
      <trkpt lat="49.4892" lon="1.05229">
        <ele>101</ele>
        <time>2012-01-30T08:47:51Z</time>
      </trkpt>
      <trkpt lat="49.48915" lon="1.05233">
        <ele>100</ele>
        <time>2012-01-30T08:47:55Z</time>
      </trkpt>
      <trkpt lat="49.4891" lon="1.05237">
        <ele>103</ele>
        <time>2012-01-30T08:47:58Z</time>
      </trkpt>
      <trkpt lat="49.48905" lon="1.05241">
        <ele>92</ele>
        <time>2012-01-30T08:48:02Z</time>
      </trkpt>
      <trkpt lat="49.48899" lon="1.05244">
        <ele>87</ele>
        <time>2012-01-30T08:48:06Z</time>
      </trkpt>
      <trkpt lat="49.48894" lon="1.05248">
        <ele>90</ele>
        <time>2012-01-30T08:48:10Z</time>
      </trkpt>
      <trkpt lat="49.4889" lon="1.05252">
        <ele>88</ele>
        <time>2012-01-30T08:48:13Z</time>
      </trkpt>
      <trkpt lat="49.48884" lon="1.05259">
        <ele>92</ele>
        <time>2012-01-30T08:48:16Z</time>
      </trkpt>
      <trkpt lat="49.48879" lon="1.05265">
        <ele>91</ele>
        <time>2012-01-30T08:48:19Z</time>
      </trkpt>
      <trkpt lat="49.48875" lon="1.05272">
        <ele>89</ele>
        <time>2012-01-30T08:48:22Z</time>
      </trkpt>
      <trkpt lat="49.48872" lon="1.05282">
        <ele>89</ele>
        <time>2012-01-30T08:48:25Z</time>
      </trkpt>
      <trkpt lat="49.4887" lon="1.0529">
        <ele>87</ele>
        <time>2012-01-30T08:48:28Z</time>
      </trkpt>
      <trkpt lat="49.48868" lon="1.05298">
        <ele>87</ele>
        <time>2012-01-30T08:48:32Z</time>
      </trkpt>
      <trkpt lat="49.48871" lon="1.05303">
        <ele>92</ele>
        <time>2012-01-30T08:48:43Z</time>
      </trkpt>
      <trkpt lat="49.48876" lon="1.05299">
        <ele>90</ele>
        <time>2012-01-30T08:48:47Z</time>
      </trkpt>
      <trkpt lat="49.48881" lon="1.05298">
        <ele>94</ele>
        <time>2012-01-30T08:48:50Z</time>
      </trkpt>
      <trkpt lat="49.48886" lon="1.05296">
        <ele>101</ele>
        <time>2012-01-30T08:48:53Z</time>
      </trkpt>
      <trkpt lat="49.48892" lon="1.05295">
        <ele>88</ele>
        <time>2012-01-30T08:48:57Z</time>
      </trkpt>
      <trkpt lat="49.48897" lon="1.05294">
        <ele>88</ele>
        <time>2012-01-30T08:49:00Z</time>
      </trkpt>
      <trkpt lat="49.48902" lon="1.05295">
        <ele>95</ele>
        <time>2012-01-30T08:49:03Z</time>
      </trkpt>
      <trkpt lat="49.48908" lon="1.05295">
        <ele>100</ele>
        <time>2012-01-30T08:49:06Z</time>
      </trkpt>
      <trkpt lat="49.48913" lon="1.05294">
        <ele>106</ele>
        <time>2012-01-30T08:49:10Z</time>
      </trkpt>
      <trkpt lat="49.48919" lon="1.05294">
        <ele>114</ele>
        <time>2012-01-30T08:49:14Z</time>
      </trkpt>
      <trkpt lat="49.48924" lon="1.05293">
        <ele>119</ele>
        <time>2012-01-30T08:49:17Z</time>
      </trkpt>
      <trkpt lat="49.48929" lon="1.05293">
        <ele>119</ele>
        <time>2012-01-30T08:49:20Z</time>
      </trkpt>
      <trkpt lat="49.48933" lon="1.05292">
        <ele>121</ele>
        <time>2012-01-30T08:49:24Z</time>
      </trkpt>
      <trkpt lat="49.48938" lon="1.0529">
        <ele>100</ele>
        <time>2012-01-30T08:49:28Z</time>
      </trkpt>
      <trkpt lat="49.48943" lon="1.05288">
        <ele>91</ele>
        <time>2012-01-30T08:49:32Z</time>
      </trkpt>
      <trkpt lat="49.48948" lon="1.05286">
        <ele>90</ele>
        <time>2012-01-30T08:49:36Z</time>
      </trkpt>
      <trkpt lat="49.48955" lon="1.05286">
        <ele>90</ele>
        <time>2012-01-30T08:49:40Z</time>
      </trkpt>
      <trkpt lat="49.48959" lon="1.05287">
        <ele>92</ele>
        <time>2012-01-30T08:49:42Z</time>
      </trkpt>
      <trkpt lat="49.48965" lon="1.05287">
        <ele>92</ele>
        <time>2012-01-30T08:49:45Z</time>
      </trkpt>
      <trkpt lat="49.4897" lon="1.05287">
        <ele>95</ele>
        <time>2012-01-30T08:49:48Z</time>
      </trkpt>
      <trkpt lat="49.48975" lon="1.05287">
        <ele>89</ele>
        <time>2012-01-30T08:49:50Z</time>
      </trkpt>
      <trkpt lat="49.48981" lon="1.05286">
        <ele>95</ele>
        <time>2012-01-30T08:49:53Z</time>
      </trkpt>
      <trkpt lat="49.48988" lon="1.05287">
        <ele>97</ele>
        <time>2012-01-30T08:49:56Z</time>
      </trkpt>
      <trkpt lat="49.48994" lon="1.05287">
        <ele>98</ele>
        <time>2012-01-30T08:49:58Z</time>
      </trkpt>
      <trkpt lat="49.48998" lon="1.05289">
        <ele>104</ele>
        <time>2012-01-30T08:50:00Z</time>
      </trkpt>
      <trkpt lat="49.49003" lon="1.05291">
        <ele>110</ele>
        <time>2012-01-30T08:50:02Z</time>
      </trkpt>
      <trkpt lat="49.49008" lon="1.05296">
        <ele>114</ele>
        <time>2012-01-30T08:50:04Z</time>
      </trkpt>
      <trkpt lat="49.49013" lon="1.05301">
        <ele>104</ele>
        <time>2012-01-30T08:50:06Z</time>
      </trkpt>
      <trkpt lat="49.49018" lon="1.05304">
        <ele>108</ele>
        <time>2012-01-30T08:50:08Z</time>
      </trkpt>
      <trkpt lat="49.49023" lon="1.05304">
        <ele>103</ele>
        <time>2012-01-30T08:50:11Z</time>
      </trkpt>
      <trkpt lat="49.49028" lon="1.05303">
        <ele>110</ele>
        <time>2012-01-30T08:50:14Z</time>
      </trkpt>
      <trkpt lat="49.49034" lon="1.05302">
        <ele>111</ele>
        <time>2012-01-30T08:50:16Z</time>
      </trkpt>
      <trkpt lat="49.49039" lon="1.053">
        <ele>107</ele>
        <time>2012-01-30T08:50:18Z</time>
      </trkpt>
      <trkpt lat="49.49043" lon="1.05297">
        <ele>111</ele>
        <time>2012-01-30T08:50:20Z</time>
      </trkpt>
      <trkpt lat="49.49048" lon="1.05296">
        <ele>118</ele>
        <time>2012-01-30T08:50:22Z</time>
      </trkpt>
      <trkpt lat="49.49052" lon="1.05294">
        <ele>115</ele>
        <time>2012-01-30T08:50:24Z</time>
      </trkpt>
      <trkpt lat="49.49058" lon="1.05292">
        <ele>100</ele>
        <time>2012-01-30T08:50:27Z</time>
      </trkpt>
      <trkpt lat="49.49062" lon="1.05296">
        <ele>94</ele>
        <time>2012-01-30T08:50:30Z</time>
      </trkpt>
      <trkpt lat="49.49063" lon="1.05304">
        <ele>97</ele>
        <time>2012-01-30T08:50:37Z</time>
      </trkpt>
      <trkpt lat="49.49059" lon="1.05308">
        <ele>102</ele>
        <time>2012-01-30T08:50:40Z</time>
      </trkpt>
      <trkpt lat="49.49054" lon="1.0531">
        <ele>104</ele>
        <time>2012-01-30T08:50:43Z</time>
      </trkpt>
      <trkpt lat="49.49049" lon="1.0531">
        <ele>104</ele>
        <time>2012-01-30T08:50:45Z</time>
      </trkpt>
      <trkpt lat="49.49044" lon="1.0531">
        <ele>106</ele>
        <time>2012-01-30T08:50:47Z</time>
      </trkpt>
      <trkpt lat="49.49038" lon="1.05309">
        <ele>107</ele>
        <time>2012-01-30T08:50:49Z</time>
      </trkpt>
      <trkpt lat="49.49032" lon="1.05308">
        <ele>105</ele>
        <time>2012-01-30T08:50:52Z</time>
      </trkpt>
      <trkpt lat="49.49027" lon="1.0531">
        <ele>99</ele>
        <time>2012-01-30T08:50:54Z</time>
      </trkpt>
      <trkpt lat="49.49022" lon="1.05314">
        <ele>98</ele>
        <time>2012-01-30T08:50:56Z</time>
      </trkpt>
      <trkpt lat="49.49018" lon="1.05317">
        <ele>96</ele>
        <time>2012-01-30T08:50:59Z</time>
      </trkpt>
      <trkpt lat="49.49012" lon="1.0532">
        <ele>98</ele>
        <time>2012-01-30T08:51:03Z</time>
      </trkpt>
      <trkpt lat="49.49009" lon="1.05323">
        <ele>108</ele>
        <time>2012-01-30T08:51:08Z</time>
      </trkpt>
      <trkpt lat="49.49003" lon="1.05324">
        <ele>120</ele>
        <time>2012-01-30T08:51:13Z</time>
      </trkpt>
      <trkpt lat="49.48998" lon="1.05326">
        <ele>128</ele>
        <time>2012-01-30T08:51:17Z</time>
      </trkpt>
      <trkpt lat="49.48994" lon="1.05327">
        <ele>129</ele>
        <time>2012-01-30T08:51:20Z</time>
      </trkpt>
      <trkpt lat="49.48989" lon="1.05326">
        <ele>132</ele>
        <time>2012-01-30T08:51:22Z</time>
      </trkpt>
      <trkpt lat="49.48982" lon="1.05326">
        <ele>134</ele>
        <time>2012-01-30T08:51:25Z</time>
      </trkpt>
      <trkpt lat="49.48978" lon="1.05325">
        <ele>137</ele>
        <time>2012-01-30T08:51:28Z</time>
      </trkpt>
      <trkpt lat="49.48971" lon="1.05326">
        <ele>118</ele>
        <time>2012-01-30T08:51:32Z</time>
      </trkpt>
      <trkpt lat="49.48967" lon="1.0533">
        <ele>126</ele>
        <time>2012-01-30T08:51:35Z</time>
      </trkpt>
      <trkpt lat="49.48966" lon="1.05339">
        <ele>126</ele>
        <time>2012-01-30T08:51:39Z</time>
      </trkpt>
      <trkpt lat="49.48964" lon="1.05344">
        <ele>131</ele>
        <time>2012-01-30T08:51:45Z</time>
      </trkpt>
      <trkpt lat="49.4896" lon="1.05352">
        <ele>126</ele>
        <time>2012-01-30T08:51:48Z</time>
      </trkpt>
      <trkpt lat="49.48955" lon="1.05358">
        <ele>125</ele>
        <time>2012-01-30T08:51:51Z</time>
      </trkpt>
      <trkpt lat="49.48952" lon="1.05365">
        <ele>130</ele>
        <time>2012-01-30T08:51:54Z</time>
      </trkpt>
      <trkpt lat="49.4895" lon="1.05372">
        <ele>143</ele>
        <time>2012-01-30T08:51:58Z</time>
      </trkpt>
      <trkpt lat="49.48947" lon="1.05378">
        <ele>146</ele>
        <time>2012-01-30T08:52:04Z</time>
      </trkpt>
      <trkpt lat="49.48943" lon="1.05381">
        <ele>122</ele>
        <time>2012-01-30T08:52:12Z</time>
      </trkpt>
      <trkpt lat="49.48944" lon="1.05392">
        <ele>122</ele>
        <time>2012-01-30T08:52:18Z</time>
      </trkpt>
      <trkpt lat="49.48948" lon="1.05399">
        <ele>127</ele>
        <time>2012-01-30T08:52:20Z</time>
      </trkpt>
      <trkpt lat="49.48952" lon="1.05404">
        <ele>136</ele>
        <time>2012-01-30T08:52:23Z</time>
      </trkpt>
      <trkpt lat="49.48954" lon="1.05411">
        <ele>145</ele>
        <time>2012-01-30T08:52:28Z</time>
      </trkpt>
      <trkpt lat="49.48953" lon="1.05418">
        <ele>154</ele>
        <time>2012-01-30T08:52:33Z</time>
      </trkpt>
      <trkpt lat="49.4895" lon="1.05425">
        <ele>157</ele>
        <time>2012-01-30T08:52:38Z</time>
      </trkpt>
      <trkpt lat="49.48947" lon="1.0543">
        <ele>151</ele>
        <time>2012-01-30T08:52:50Z</time>
      </trkpt>
      <trkpt lat="49.4894" lon="1.05431">
        <ele>124</ele>
        <time>2012-01-30T08:52:58Z</time>
      </trkpt>
      <trkpt lat="49.48934" lon="1.0543">
        <ele>123</ele>
        <time>2012-01-30T08:52:59Z</time>
      </trkpt>
      <trkpt lat="49.48928" lon="1.05429">
        <ele>124</ele>
        <time>2012-01-30T08:53:00Z</time>
      </trkpt>
      <trkpt lat="49.48919" lon="1.05427">
        <ele>127</ele>
        <time>2012-01-30T08:53:01Z</time>
      </trkpt>
      <trkpt lat="49.48913" lon="1.05426">
        <ele>126</ele>
        <time>2012-01-30T08:53:02Z</time>
      </trkpt>
      <trkpt lat="49.48904" lon="1.05425">
        <ele>129</ele>
        <time>2012-01-30T08:53:04Z</time>
      </trkpt>
      <trkpt lat="49.48897" lon="1.05426">
        <ele>131</ele>
        <time>2012-01-30T08:53:06Z</time>
      </trkpt>
      <trkpt lat="49.4889" lon="1.05426">
        <ele>130</ele>
        <time>2012-01-30T08:53:08Z</time>
      </trkpt>
      <trkpt lat="49.48884" lon="1.05425">
        <ele>128</ele>
        <time>2012-01-30T08:53:10Z</time>
      </trkpt>
      <trkpt lat="49.48878" lon="1.05424">
        <ele>126</ele>
        <time>2012-01-30T08:53:13Z</time>
      </trkpt>
      <trkpt lat="49.48873" lon="1.05422">
        <ele>125</ele>
        <time>2012-01-30T08:53:15Z</time>
      </trkpt>
      <trkpt lat="49.48866" lon="1.05422">
        <ele>119</ele>
        <time>2012-01-30T08:53:18Z</time>
      </trkpt>
      <trkpt lat="49.48861" lon="1.0542">
        <ele>116</ele>
        <time>2012-01-30T08:53:21Z</time>
      </trkpt>
      <trkpt lat="49.48859" lon="1.05428">
        <ele>106</ele>
        <time>2012-01-30T08:53:25Z</time>
      </trkpt>
      <trkpt lat="49.48856" lon="1.05435">
        <ele>94</ele>
        <time>2012-01-30T08:53:31Z</time>
      </trkpt>
      <trkpt lat="49.48853" lon="1.05441">
        <ele>91</ele>
        <time>2012-01-30T08:53:34Z</time>
      </trkpt>
      <trkpt lat="49.48849" lon="1.05446">
        <ele>95</ele>
        <time>2012-01-30T08:53:36Z</time>
      </trkpt>
      <trkpt lat="49.48845" lon="1.05452">
        <ele>96</ele>
        <time>2012-01-30T08:53:39Z</time>
      </trkpt>
      <trkpt lat="49.4884" lon="1.05457">
        <ele>97</ele>
        <time>2012-01-30T08:53:43Z</time>
      </trkpt>
      <trkpt lat="49.48836" lon="1.0546">
        <ele>99</ele>
        <time>2012-01-30T08:53:46Z</time>
      </trkpt>
      <trkpt lat="49.48832" lon="1.05464">
        <ele>100</ele>
        <time>2012-01-30T08:53:50Z</time>
      </trkpt>
      <trkpt lat="49.48828" lon="1.05468">
        <ele>100</ele>
        <time>2012-01-30T08:53:54Z</time>
      </trkpt>
      <trkpt lat="49.48831" lon="1.05462">
        <ele>100</ele>
        <time>2012-01-30T08:54:04Z</time>
      </trkpt>
      <trkpt lat="49.48831" lon="1.05472">
        <ele>98</ele>
        <time>2012-01-30T08:54:23Z</time>
      </trkpt>
      <trkpt lat="49.48832" lon="1.0548">
        <ele>98</ele>
        <time>2012-01-30T08:54:25Z</time>
      </trkpt>
      <trkpt lat="49.48833" lon="1.05486">
        <ele>97</ele>
        <time>2012-01-30T08:54:27Z</time>
      </trkpt>
      <trkpt lat="49.48834" lon="1.05494">
        <ele>94</ele>
        <time>2012-01-30T08:54:29Z</time>
      </trkpt>
      <trkpt lat="49.48834" lon="1.05501">
        <ele>96</ele>
        <time>2012-01-30T08:54:31Z</time>
      </trkpt>
      <trkpt lat="49.48835" lon="1.05508">
        <ele>96</ele>
        <time>2012-01-30T08:54:33Z</time>
      </trkpt>
      <trkpt lat="49.48838" lon="1.05515">
        <ele>96</ele>
        <time>2012-01-30T08:54:36Z</time>
      </trkpt>
      <trkpt lat="49.48842" lon="1.05523">
        <ele>97</ele>
        <time>2012-01-30T08:54:39Z</time>
      </trkpt>
      <trkpt lat="49.48844" lon="1.05529">
        <ele>97</ele>
        <time>2012-01-30T08:54:41Z</time>
      </trkpt>
      <trkpt lat="49.48844" lon="1.05538">
        <ele>103</ele>
        <time>2012-01-30T08:54:45Z</time>
      </trkpt>
      <trkpt lat="49.48843" lon="1.05545">
        <ele>105</ele>
        <time>2012-01-30T08:54:48Z</time>
      </trkpt>
      <trkpt lat="49.48842" lon="1.05554">
        <ele>104</ele>
        <time>2012-01-30T08:54:51Z</time>
      </trkpt>
      <trkpt lat="49.4884" lon="1.05561">
        <ele>103</ele>
        <time>2012-01-30T08:54:54Z</time>
      </trkpt>
      <trkpt lat="49.48839" lon="1.05568">
        <ele>101</ele>
        <time>2012-01-30T08:54:57Z</time>
      </trkpt>
      <trkpt lat="49.48835" lon="1.05575">
        <ele>99</ele>
        <time>2012-01-30T08:55:00Z</time>
      </trkpt>
      <trkpt lat="49.48831" lon="1.05582">
        <ele>99</ele>
        <time>2012-01-30T08:55:03Z</time>
      </trkpt>
      <trkpt lat="49.48828" lon="1.05588">
        <ele>98</ele>
        <time>2012-01-30T08:55:07Z</time>
      </trkpt>
      <trkpt lat="49.48825" lon="1.05594">
        <ele>97</ele>
        <time>2012-01-30T08:55:10Z</time>
      </trkpt>
      <trkpt lat="49.48822" lon="1.056">
        <ele>97</ele>
        <time>2012-01-30T08:55:14Z</time>
      </trkpt>
      <trkpt lat="49.48818" lon="1.05606">
        <ele>96</ele>
        <time>2012-01-30T08:55:19Z</time>
      </trkpt>
      <trkpt lat="49.48813" lon="1.05608">
        <ele>94</ele>
        <time>2012-01-30T08:55:24Z</time>
      </trkpt>
      <trkpt lat="49.48809" lon="1.05612">
        <ele>90</ele>
        <time>2012-01-30T08:55:28Z</time>
      </trkpt>
      <trkpt lat="49.48805" lon="1.05618">
        <ele>91</ele>
        <time>2012-01-30T08:55:37Z</time>
      </trkpt>
      <trkpt lat="49.48802" lon="1.05624">
        <ele>90</ele>
        <time>2012-01-30T08:55:42Z</time>
      </trkpt>
      <trkpt lat="49.48798" lon="1.05627">
        <ele>91</ele>
        <time>2012-01-30T08:55:46Z</time>
      </trkpt>
      <trkpt lat="49.48792" lon="1.05628">
        <ele>93</ele>
        <time>2012-01-30T08:55:49Z</time>
      </trkpt>
      <trkpt lat="49.48787" lon="1.05632">
        <ele>92</ele>
        <time>2012-01-30T08:55:52Z</time>
      </trkpt>
      <trkpt lat="49.48783" lon="1.05637">
        <ele>96</ele>
        <time>2012-01-30T08:55:56Z</time>
      </trkpt>
      <trkpt lat="49.48781" lon="1.05644">
        <ele>97</ele>
        <time>2012-01-30T08:56:00Z</time>
      </trkpt>
      <trkpt lat="49.48779" lon="1.05651">
        <ele>98</ele>
        <time>2012-01-30T08:56:04Z</time>
      </trkpt>
      <trkpt lat="49.48777" lon="1.05658">
        <ele>97</ele>
        <time>2012-01-30T08:56:09Z</time>
      </trkpt>
      <trkpt lat="49.48775" lon="1.05666">
        <ele>99</ele>
        <time>2012-01-30T08:56:13Z</time>
      </trkpt>
      <trkpt lat="49.48773" lon="1.05674">
        <ele>100</ele>
        <time>2012-01-30T08:56:17Z</time>
      </trkpt>
      <trkpt lat="49.48768" lon="1.05678">
        <ele>100</ele>
        <time>2012-01-30T08:56:20Z</time>
      </trkpt>
      <trkpt lat="49.48763" lon="1.05685">
        <ele>108</ele>
        <time>2012-01-30T08:56:22Z</time>
      </trkpt>
      <trkpt lat="49.48759" lon="1.05691">
        <ele>105</ele>
        <time>2012-01-30T08:56:23Z</time>
      </trkpt>
      <trkpt lat="49.4875" lon="1.05696">
        <ele>100</ele>
        <time>2012-01-30T08:56:37Z</time>
      </trkpt>
      <trkpt lat="49.48745" lon="1.05701">
        <ele>100</ele>
        <time>2012-01-30T08:56:38Z</time>
      </trkpt>
      <trkpt lat="49.48741" lon="1.05707">
        <ele>100</ele>
        <time>2012-01-30T08:56:39Z</time>
      </trkpt>
      <trkpt lat="49.48737" lon="1.05715">
        <ele>98</ele>
        <time>2012-01-30T08:56:40Z</time>
      </trkpt>
      <trkpt lat="49.48725" lon="1.05732">
        <ele>104</ele>
        <time>2012-01-30T08:56:59Z</time>
      </trkpt>
      <trkpt lat="49.4872" lon="1.05731">
        <ele>104</ele>
        <time>2012-01-30T08:57:03Z</time>
      </trkpt>
      <trkpt lat="49.48715" lon="1.05733">
        <ele>104</ele>
        <time>2012-01-30T08:57:04Z</time>
      </trkpt>
      <trkpt lat="49.48711" lon="1.05737">
        <ele>103</ele>
        <time>2012-01-30T08:57:05Z</time>
      </trkpt>
      <trkpt lat="49.48706" lon="1.05744">
        <ele>105</ele>
        <time>2012-01-30T08:57:10Z</time>
      </trkpt>
      <trkpt lat="49.48702" lon="1.05747">
        <ele>104</ele>
        <time>2012-01-30T08:57:12Z</time>
      </trkpt>
      <trkpt lat="49.48697" lon="1.05752">
        <ele>103</ele>
        <time>2012-01-30T08:57:15Z</time>
      </trkpt>
      <trkpt lat="49.48692" lon="1.05758">
        <ele>109</ele>
        <time>2012-01-30T08:57:18Z</time>
      </trkpt>
      <trkpt lat="49.48686" lon="1.0576">
        <ele>113</ele>
        <time>2012-01-30T08:57:21Z</time>
      </trkpt>
      <trkpt lat="49.4868" lon="1.0576">
        <ele>110</ele>
        <time>2012-01-30T08:57:24Z</time>
      </trkpt>
      <trkpt lat="49.48675" lon="1.0576">
        <ele>110</ele>
        <time>2012-01-30T08:57:27Z</time>
      </trkpt>
      <trkpt lat="49.4867" lon="1.05757">
        <ele>109</ele>
        <time>2012-01-30T08:57:29Z</time>
      </trkpt>
      <trkpt lat="49.48663" lon="1.0575">
        <ele>106</ele>
        <time>2012-01-30T08:57:31Z</time>
      </trkpt>
      <trkpt lat="49.48657" lon="1.05742">
        <ele>110</ele>
        <time>2012-01-30T08:57:33Z</time>
      </trkpt>
      <trkpt lat="49.48652" lon="1.05733">
        <ele>109</ele>
        <time>2012-01-30T08:57:35Z</time>
      </trkpt>
      <trkpt lat="49.48649" lon="1.05724">
        <ele>110</ele>
        <time>2012-01-30T08:57:37Z</time>
      </trkpt>
      <trkpt lat="49.48645" lon="1.05714">
        <ele>109</ele>
        <time>2012-01-30T08:57:39Z</time>
      </trkpt>
      <trkpt lat="49.48643" lon="1.05707">
        <ele>111</ele>
        <time>2012-01-30T08:57:41Z</time>
      </trkpt>
      <trkpt lat="49.4864" lon="1.05699">
        <ele>113</ele>
        <time>2012-01-30T08:57:43Z</time>
      </trkpt>
      <trkpt lat="49.48638" lon="1.05691">
        <ele>114</ele>
        <time>2012-01-30T08:57:45Z</time>
      </trkpt>
      <trkpt lat="49.48635" lon="1.05685">
        <ele>109</ele>
        <time>2012-01-30T08:57:47Z</time>
      </trkpt>
      <trkpt lat="49.48631" lon="1.0568">
        <ele>107</ele>
        <time>2012-01-30T08:57:49Z</time>
      </trkpt>
      <trkpt lat="49.48627" lon="1.05676">
        <ele>108</ele>
        <time>2012-01-30T08:57:51Z</time>
      </trkpt>
      <trkpt lat="49.48623" lon="1.0568">
        <ele>103</ele>
        <time>2012-01-30T08:57:53Z</time>
      </trkpt>
      <trkpt lat="49.4862" lon="1.05686">
        <ele>102</ele>
        <time>2012-01-30T08:57:55Z</time>
      </trkpt>
      <trkpt lat="49.48617" lon="1.05695">
        <ele>104</ele>
        <time>2012-01-30T08:57:57Z</time>
      </trkpt>
      <trkpt lat="49.48614" lon="1.05705">
        <ele>107</ele>
        <time>2012-01-30T08:57:59Z</time>
      </trkpt>
      <trkpt lat="49.48612" lon="1.05713">
        <ele>105</ele>
        <time>2012-01-30T08:58:01Z</time>
      </trkpt>
      <trkpt lat="49.48609" lon="1.0572">
        <ele>104</ele>
        <time>2012-01-30T08:58:03Z</time>
      </trkpt>
      <trkpt lat="49.48607" lon="1.05727">
        <ele>106</ele>
        <time>2012-01-30T08:58:05Z</time>
      </trkpt>
      <trkpt lat="49.48605" lon="1.05734">
        <ele>105</ele>
        <time>2012-01-30T08:58:07Z</time>
      </trkpt>
      <trkpt lat="49.48604" lon="1.05741">
        <ele>107</ele>
        <time>2012-01-30T08:58:09Z</time>
      </trkpt>
      <trkpt lat="49.48602" lon="1.0575">
        <ele>107</ele>
        <time>2012-01-30T08:58:11Z</time>
      </trkpt>
      <trkpt lat="49.486" lon="1.05758">
        <ele>107</ele>
        <time>2012-01-30T08:58:13Z</time>
      </trkpt>
      <trkpt lat="49.48599" lon="1.05767">
        <ele>109</ele>
        <time>2012-01-30T08:58:15Z</time>
      </trkpt>
      <trkpt lat="49.48597" lon="1.05777">
        <ele>109</ele>
        <time>2012-01-30T08:58:17Z</time>
      </trkpt>
      <trkpt lat="49.48596" lon="1.05786">
        <ele>106</ele>
        <time>2012-01-30T08:58:19Z</time>
      </trkpt>
      <trkpt lat="49.48595" lon="1.05795">
        <ele>109</ele>
        <time>2012-01-30T08:58:21Z</time>
      </trkpt>
      <trkpt lat="49.48594" lon="1.05804">
        <ele>105</ele>
        <time>2012-01-30T08:58:23Z</time>
      </trkpt>
      <trkpt lat="49.48594" lon="1.05812">
        <ele>106</ele>
        <time>2012-01-30T08:58:25Z</time>
      </trkpt>
      <trkpt lat="49.48592" lon="1.05821">
        <ele>109</ele>
        <time>2012-01-30T08:58:28Z</time>
      </trkpt>
      <trkpt lat="49.48591" lon="1.05828">
        <ele>113</ele>
        <time>2012-01-30T08:58:31Z</time>
      </trkpt>
      <trkpt lat="49.4859" lon="1.05836">
        <ele>111</ele>
        <time>2012-01-30T08:58:35Z</time>
      </trkpt>
      <trkpt lat="49.48594" lon="1.05841">
        <ele>114</ele>
        <time>2012-01-30T08:58:38Z</time>
      </trkpt>
      <trkpt lat="49.486" lon="1.05846">
        <ele>107</ele>
        <time>2012-01-30T08:58:41Z</time>
      </trkpt>
      <trkpt lat="49.48605" lon="1.05851">
        <ele>104</ele>
        <time>2012-01-30T08:58:43Z</time>
      </trkpt>
      <trkpt lat="49.48608" lon="1.05856">
        <ele>104</ele>
        <time>2012-01-30T08:58:45Z</time>
      </trkpt>
      <trkpt lat="49.48611" lon="1.05864">
        <ele>105</ele>
        <time>2012-01-30T08:58:48Z</time>
      </trkpt>
      <trkpt lat="49.48615" lon="1.05869">
        <ele>105</ele>
        <time>2012-01-30T08:58:52Z</time>
      </trkpt>
      <trkpt lat="49.4862" lon="1.05864">
        <ele>107</ele>
        <time>2012-01-30T08:58:57Z</time>
      </trkpt>
      <trkpt lat="49.48625" lon="1.05863">
        <ele>103</ele>
        <time>2012-01-30T08:59:01Z</time>
      </trkpt>
      <trkpt lat="49.4863" lon="1.05864">
        <ele>104</ele>
        <time>2012-01-30T08:59:05Z</time>
      </trkpt>
      <trkpt lat="49.48636" lon="1.05868">
        <ele>106</ele>
        <time>2012-01-30T08:59:08Z</time>
      </trkpt>
      <trkpt lat="49.48641" lon="1.05872">
        <ele>106</ele>
        <time>2012-01-30T08:59:10Z</time>
      </trkpt>
      <trkpt lat="49.48645" lon="1.05876">
        <ele>105</ele>
        <time>2012-01-30T08:59:12Z</time>
      </trkpt>
      <trkpt lat="49.48651" lon="1.0588">
        <ele>104</ele>
        <time>2012-01-30T08:59:15Z</time>
      </trkpt>
      <trkpt lat="49.48656" lon="1.05884">
        <ele>106</ele>
        <time>2012-01-30T08:59:18Z</time>
      </trkpt>
      <trkpt lat="49.48662" lon="1.0589">
        <ele>104</ele>
        <time>2012-01-30T08:59:20Z</time>
      </trkpt>
      <trkpt lat="49.48668" lon="1.05896">
        <ele>104</ele>
        <time>2012-01-30T08:59:22Z</time>
      </trkpt>
      <trkpt lat="49.48675" lon="1.05896">
        <ele>105</ele>
        <time>2012-01-30T08:59:24Z</time>
      </trkpt>
      <trkpt lat="49.4868" lon="1.05894">
        <ele>105</ele>
        <time>2012-01-30T08:59:26Z</time>
      </trkpt>
      <trkpt lat="49.48691" lon="1.059">
        <ele>105</ele>
        <time>2012-01-30T08:59:30Z</time>
      </trkpt>
      <trkpt lat="49.48696" lon="1.05903">
        <ele>105</ele>
        <time>2012-01-30T08:59:31Z</time>
      </trkpt>
      <trkpt lat="49.48701" lon="1.05906">
        <ele>105</ele>
        <time>2012-01-30T08:59:32Z</time>
      </trkpt>
      <trkpt lat="49.48707" lon="1.05908">
        <ele>106</ele>
        <time>2012-01-30T08:59:33Z</time>
      </trkpt>
      <trkpt lat="49.48712" lon="1.05909">
        <ele>105</ele>
        <time>2012-01-30T08:59:34Z</time>
      </trkpt>
      <trkpt lat="49.48717" lon="1.05911">
        <ele>104</ele>
        <time>2012-01-30T08:59:35Z</time>
      </trkpt>
      <trkpt lat="49.48724" lon="1.05914">
        <ele>105</ele>
        <time>2012-01-30T08:59:37Z</time>
      </trkpt>
      <trkpt lat="49.48731" lon="1.05912">
        <ele>106</ele>
        <time>2012-01-30T08:59:39Z</time>
      </trkpt>
      <trkpt lat="49.48736" lon="1.05912">
        <ele>106</ele>
        <time>2012-01-30T08:59:41Z</time>
      </trkpt>
      <trkpt lat="49.48742" lon="1.05912">
        <ele>107</ele>
        <time>2012-01-30T08:59:44Z</time>
      </trkpt>
      <trkpt lat="49.48747" lon="1.05915">
        <ele>105</ele>
        <time>2012-01-30T08:59:46Z</time>
      </trkpt>
      <trkpt lat="49.48752" lon="1.05916">
        <ele>106</ele>
        <time>2012-01-30T08:59:48Z</time>
      </trkpt>
      <trkpt lat="49.48758" lon="1.05921">
        <ele>106</ele>
        <time>2012-01-30T08:59:51Z</time>
      </trkpt>
      <trkpt lat="49.48763" lon="1.05926">
        <ele>106</ele>
        <time>2012-01-30T08:59:53Z</time>
      </trkpt>
      <trkpt lat="49.48767" lon="1.05931">
        <ele>107</ele>
        <time>2012-01-30T08:59:55Z</time>
      </trkpt>
      <trkpt lat="49.48771" lon="1.05936">
        <ele>109</ele>
        <time>2012-01-30T08:59:58Z</time>
      </trkpt>
      <trkpt lat="49.48776" lon="1.05935">
        <ele>107</ele>
        <time>2012-01-30T09:00:03Z</time>
      </trkpt>
      <trkpt lat="49.48772" lon="1.05932">
        <ele>108</ele>
        <time>2012-01-30T09:00:11Z</time>
      </trkpt>
      <trkpt lat="49.48768" lon="1.05929">
        <ele>106</ele>
        <time>2012-01-30T09:00:17Z</time>
      </trkpt>
      <trkpt lat="49.48761" lon="1.05931">
        <ele>106</ele>
        <time>2012-01-30T09:00:21Z</time>
      </trkpt>
      <trkpt lat="49.48756" lon="1.05932">
        <ele>106</ele>
        <time>2012-01-30T09:00:23Z</time>
      </trkpt>
      <trkpt lat="49.48751" lon="1.05932">
        <ele>105</ele>
        <time>2012-01-30T09:00:25Z</time>
      </trkpt>
      <trkpt lat="49.48746" lon="1.05932">
        <ele>105</ele>
        <time>2012-01-30T09:00:27Z</time>
      </trkpt>
      <trkpt lat="49.48741" lon="1.05931">
        <ele>105</ele>
        <time>2012-01-30T09:00:29Z</time>
      </trkpt>
      <trkpt lat="49.48736" lon="1.0593">
        <ele>105</ele>
        <time>2012-01-30T09:00:31Z</time>
      </trkpt>
      <trkpt lat="49.4873" lon="1.05929">
        <ele>105</ele>
        <time>2012-01-30T09:00:33Z</time>
      </trkpt>
      <trkpt lat="49.48724" lon="1.05928">
        <ele>105</ele>
        <time>2012-01-30T09:00:35Z</time>
      </trkpt>
      <trkpt lat="49.48717" lon="1.05926">
        <ele>104</ele>
        <time>2012-01-30T09:00:37Z</time>
      </trkpt>
      <trkpt lat="49.4871" lon="1.05925">
        <ele>103</ele>
        <time>2012-01-30T09:00:39Z</time>
      </trkpt>
      <trkpt lat="49.48702" lon="1.05924">
        <ele>102</ele>
        <time>2012-01-30T09:00:41Z</time>
      </trkpt>
      <trkpt lat="49.48694" lon="1.05923">
        <ele>101</ele>
        <time>2012-01-30T09:00:43Z</time>
      </trkpt>
      <trkpt lat="49.48685" lon="1.05922">
        <ele>101</ele>
        <time>2012-01-30T09:00:45Z</time>
      </trkpt>
      <trkpt lat="49.4868" lon="1.05921">
        <ele>101</ele>
        <time>2012-01-30T09:00:46Z</time>
      </trkpt>
      <trkpt lat="49.48675" lon="1.05919">
        <ele>101</ele>
        <time>2012-01-30T09:00:47Z</time>
      </trkpt>
      <trkpt lat="49.48667" lon="1.05916">
        <ele>94</ele>
        <time>2012-01-30T09:00:48Z</time>
      </trkpt>
      <trkpt lat="49.48661" lon="1.05914">
        <ele>94</ele>
        <time>2012-01-30T09:00:49Z</time>
      </trkpt>
      <trkpt lat="49.48656" lon="1.05913">
        <ele>97</ele>
        <time>2012-01-30T09:00:50Z</time>
      </trkpt>
      <trkpt lat="49.48647" lon="1.05912">
        <ele>100</ele>
        <time>2012-01-30T09:00:52Z</time>
      </trkpt>
      <trkpt lat="49.48638" lon="1.05911">
        <ele>101</ele>
        <time>2012-01-30T09:00:54Z</time>
      </trkpt>
      <trkpt lat="49.4863" lon="1.0591">
        <ele>102</ele>
        <time>2012-01-30T09:00:56Z</time>
      </trkpt>
      <trkpt lat="49.48624" lon="1.0591">
        <ele>101</ele>
        <time>2012-01-30T09:00:58Z</time>
      </trkpt>
      <trkpt lat="49.4862" lon="1.05915">
        <ele>102</ele>
        <time>2012-01-30T09:00:59Z</time>
      </trkpt>
      <trkpt lat="49.48615" lon="1.0592">
        <ele>101</ele>
        <time>2012-01-30T09:01:00Z</time>
      </trkpt>
      <trkpt lat="49.4861" lon="1.05922">
        <ele>98</ele>
        <time>2012-01-30T09:01:01Z</time>
      </trkpt>
      <trkpt lat="49.48605" lon="1.05923">
        <ele>101</ele>
        <time>2012-01-30T09:01:02Z</time>
      </trkpt>
      <trkpt lat="49.4859" lon="1.05926">
        <ele>102</ele>
        <time>2012-01-30T09:01:06Z</time>
      </trkpt>
      <trkpt lat="49.48533" lon="1.05927">
        <ele>102</ele>
        <time>2012-01-30T09:01:25Z</time>
      </trkpt>
      <trkpt lat="49.48525" lon="1.059">
        <ele>103</ele>
        <time>2012-01-30T09:01:29Z</time>
      </trkpt>
      <trkpt lat="49.48519" lon="1.05894">
        <ele>103</ele>
        <time>2012-01-30T09:01:30Z</time>
      </trkpt>
      <trkpt lat="49.48516" lon="1.05888">
        <ele>103</ele>
        <time>2012-01-30T09:01:31Z</time>
      </trkpt>
      <trkpt lat="49.4851" lon="1.05877">
        <ele>103</ele>
        <time>2012-01-30T09:01:34Z</time>
      </trkpt>
      <trkpt lat="49.48508" lon="1.0587">
        <ele>102</ele>
        <time>2012-01-30T09:01:36Z</time>
      </trkpt>
      <trkpt lat="49.48506" lon="1.05859">
        <ele>102</ele>
        <time>2012-01-30T09:01:39Z</time>
      </trkpt>
      <trkpt lat="49.48502" lon="1.05832">
        <ele>102</ele>
        <time>2012-01-30T09:01:41Z</time>
      </trkpt>
      <trkpt lat="49.485" lon="1.05825">
        <ele>103</ele>
        <time>2012-01-30T09:01:43Z</time>
      </trkpt>
      <trkpt lat="49.48485" lon="1.05812">
        <ele>102</ele>
        <time>2012-01-30T09:02:06Z</time>
      </trkpt>
      <trkpt lat="49.48474" lon="1.05807">
        <ele>103</ele>
        <time>2012-01-30T09:02:07Z</time>
      </trkpt>
      <trkpt lat="49.48478" lon="1.05779">
        <ele>102</ele>
        <time>2012-01-30T09:02:23Z</time>
      </trkpt>
      <trkpt lat="49.48476" lon="1.05772">
        <ele>102</ele>
        <time>2012-01-30T09:02:24Z</time>
      </trkpt>
      <trkpt lat="49.48479" lon="1.05766">
        <ele>102</ele>
        <time>2012-01-30T09:02:27Z</time>
      </trkpt>
      <trkpt lat="49.48422" lon="1.05711">
        <ele>103</ele>
        <time>2012-01-30T09:03:26Z</time>
      </trkpt>
      <trkpt lat="49.48415" lon="1.05711">
        <ele>103</ele>
        <time>2012-01-30T09:03:27Z</time>
      </trkpt>
      <trkpt lat="49.48409" lon="1.05707">
        <ele>102</ele>
        <time>2012-01-30T09:03:30Z</time>
      </trkpt>
      <trkpt lat="49.48433" lon="1.05711">
        <ele>102</ele>
        <time>2012-01-30T09:04:56Z</time>
      </trkpt>
      <trkpt lat="49.48433" lon="1.05711">
        <ele>102</ele>
        <time>2012-01-30T09:04:56Z</time>
      </trkpt>
      <trkpt lat="49.48433" lon="1.05711">
        <ele>102</ele>
        <time>2012-01-30T09:04:58Z</time>
      </trkpt>
      <trkpt lat="49.48437" lon="1.0578">
        <ele>103</ele>
        <time>2012-01-30T09:05:16Z</time>
      </trkpt>
      <trkpt lat="49.48437" lon="1.0578">
        <ele>103</ele>
        <time>2012-01-30T09:05:16Z</time>
      </trkpt>
      <trkpt lat="49.48437" lon="1.0578">
        <ele>103</ele>
        <time>2012-01-30T09:05:18Z</time>
      </trkpt>
      <trkpt lat="49.48397" lon="1.05725">
        <ele>103</ele>
        <time>2012-01-30T09:05:19Z</time>
      </trkpt>
      <trkpt lat="49.48394" lon="1.05717">
        <ele>99</ele>
        <time>2012-01-30T09:05:25Z</time>
      </trkpt>
      <trkpt lat="49.48389" lon="1.05713">
        <ele>95</ele>
        <time>2012-01-30T09:05:27Z</time>
      </trkpt>
      <trkpt lat="49.48383" lon="1.05714">
        <ele>96</ele>
        <time>2012-01-30T09:05:29Z</time>
      </trkpt>
      <trkpt lat="49.48378" lon="1.05714">
        <ele>97</ele>
        <time>2012-01-30T09:05:31Z</time>
      </trkpt>
      <trkpt lat="49.48371" lon="1.05716">
        <ele>102</ele>
        <time>2012-01-30T09:05:34Z</time>
      </trkpt>
      <trkpt lat="49.48371" lon="1.05724">
        <ele>103</ele>
        <time>2012-01-30T09:05:37Z</time>
      </trkpt>
      <trkpt lat="49.48376" lon="1.05722">
        <ele>98</ele>
        <time>2012-01-30T09:05:40Z</time>
      </trkpt>
      <trkpt lat="49.4838" lon="1.05717">
        <ele>98</ele>
        <time>2012-01-30T09:05:43Z</time>
      </trkpt>
      <trkpt lat="49.48384" lon="1.05714">
        <ele>103</ele>
        <time>2012-01-30T09:05:52Z</time>
      </trkpt>
      <trkpt lat="49.48379" lon="1.05712">
        <ele>102</ele>
        <time>2012-01-30T09:05:56Z</time>
      </trkpt>
      <trkpt lat="49.48375" lon="1.05715">
        <ele>102</ele>
        <time>2012-01-30T09:05:59Z</time>
      </trkpt>
      <trkpt lat="49.48374" lon="1.05726">
        <ele>102</ele>
        <time>2012-01-30T09:06:02Z</time>
      </trkpt>
      <trkpt lat="49.48374" lon="1.05735">
        <ele>101</ele>
        <time>2012-01-30T09:06:04Z</time>
      </trkpt>
      <trkpt lat="49.48374" lon="1.05746">
        <ele>100</ele>
        <time>2012-01-30T09:06:06Z</time>
      </trkpt>
      <trkpt lat="49.48375" lon="1.05758">
        <ele>100</ele>
        <time>2012-01-30T09:06:08Z</time>
      </trkpt>
      <trkpt lat="49.48376" lon="1.05766">
        <ele>102</ele>
        <time>2012-01-30T09:06:09Z</time>
      </trkpt>
      <trkpt lat="49.48376" lon="1.0578">
        <ele>102</ele>
        <time>2012-01-30T09:06:11Z</time>
      </trkpt>
      <trkpt lat="49.48376" lon="1.05787">
        <ele>102</ele>
        <time>2012-01-30T09:06:12Z</time>
      </trkpt>
      <trkpt lat="49.48374" lon="1.05799">
        <ele>103</ele>
        <time>2012-01-30T09:06:14Z</time>
      </trkpt>
      <trkpt lat="49.48372" lon="1.05809">
        <ele>102</ele>
        <time>2012-01-30T09:06:16Z</time>
      </trkpt>
      <trkpt lat="49.4837" lon="1.05816">
        <ele>102</ele>
        <time>2012-01-30T09:06:18Z</time>
      </trkpt>
      <trkpt lat="49.48367" lon="1.05822">
        <ele>101</ele>
        <time>2012-01-30T09:06:21Z</time>
      </trkpt>
      <trkpt lat="49.48363" lon="1.05826">
        <ele>98</ele>
        <time>2012-01-30T09:06:24Z</time>
      </trkpt>
      <trkpt lat="49.48357" lon="1.05826">
        <ele>100</ele>
        <time>2012-01-30T09:06:28Z</time>
      </trkpt>
      <trkpt lat="49.48352" lon="1.05818">
        <ele>101</ele>
        <time>2012-01-30T09:06:31Z</time>
      </trkpt>
      <trkpt lat="49.48349" lon="1.05814">
        <ele>103</ele>
        <time>2012-01-30T09:06:33Z</time>
      </trkpt>
      <trkpt lat="49.48343" lon="1.05805">
        <ele>103</ele>
        <time>2012-01-30T09:06:36Z</time>
      </trkpt>
      <trkpt lat="49.48338" lon="1.05793">
        <ele>98</ele>
        <time>2012-01-30T09:06:38Z</time>
      </trkpt>
      <trkpt lat="49.48336" lon="1.05787">
        <ele>92</ele>
        <time>2012-01-30T09:06:39Z</time>
      </trkpt>
      <trkpt lat="49.48332" lon="1.05776">
        <ele>96</ele>
        <time>2012-01-30T09:06:41Z</time>
      </trkpt>
      <trkpt lat="49.48328" lon="1.05765">
        <ele>97</ele>
        <time>2012-01-30T09:06:43Z</time>
      </trkpt>
      <trkpt lat="49.48325" lon="1.05755">
        <ele>99</ele>
        <time>2012-01-30T09:06:45Z</time>
      </trkpt>
      <trkpt lat="49.48322" lon="1.05743">
        <ele>96</ele>
        <time>2012-01-30T09:06:47Z</time>
      </trkpt>
      <trkpt lat="49.48322" lon="1.05736">
        <ele>96</ele>
        <time>2012-01-30T09:06:48Z</time>
      </trkpt>
      <trkpt lat="49.48321" lon="1.05728">
        <ele>96</ele>
        <time>2012-01-30T09:06:49Z</time>
      </trkpt>
      <trkpt lat="49.48319" lon="1.05716">
        <ele>95</ele>
        <time>2012-01-30T09:06:51Z</time>
      </trkpt>
      <trkpt lat="49.48318" lon="1.05705">
        <ele>92</ele>
        <time>2012-01-30T09:06:53Z</time>
      </trkpt>
      <trkpt lat="49.48316" lon="1.05692">
        <ele>93</ele>
        <time>2012-01-30T09:06:55Z</time>
      </trkpt>
      <trkpt lat="49.48316" lon="1.05679">
        <ele>94</ele>
        <time>2012-01-30T09:06:57Z</time>
      </trkpt>
      <trkpt lat="49.48315" lon="1.05672">
        <ele>97</ele>
        <time>2012-01-30T09:06:58Z</time>
      </trkpt>
      <trkpt lat="49.48314" lon="1.05658">
        <ele>97</ele>
        <time>2012-01-30T09:07:00Z</time>
      </trkpt>
      <trkpt lat="49.48314" lon="1.05643">
        <ele>97</ele>
        <time>2012-01-30T09:07:02Z</time>
      </trkpt>
      <trkpt lat="49.48313" lon="1.05632">
        <ele>99</ele>
        <time>2012-01-30T09:07:04Z</time>
      </trkpt>
      <trkpt lat="49.48313" lon="1.0562">
        <ele>99</ele>
        <time>2012-01-30T09:07:06Z</time>
      </trkpt>
      <trkpt lat="49.48315" lon="1.05609">
        <ele>99</ele>
        <time>2012-01-30T09:07:08Z</time>
      </trkpt>
      <trkpt lat="49.48318" lon="1.05596">
        <ele>101</ele>
        <time>2012-01-30T09:07:10Z</time>
      </trkpt>
      <trkpt lat="49.4832" lon="1.05583">
        <ele>98</ele>
        <time>2012-01-30T09:07:12Z</time>
      </trkpt>
      <trkpt lat="49.48322" lon="1.05574">
        <ele>98</ele>
        <time>2012-01-30T09:07:13Z</time>
      </trkpt>
      <trkpt lat="49.48323" lon="1.05567">
        <ele>100</ele>
        <time>2012-01-30T09:07:14Z</time>
      </trkpt>
      <trkpt lat="49.48323" lon="1.05559">
        <ele>94</ele>
        <time>2012-01-30T09:07:15Z</time>
      </trkpt>
      <trkpt lat="49.48324" lon="1.05551">
        <ele>90</ele>
        <time>2012-01-30T09:07:16Z</time>
      </trkpt>
      <trkpt lat="49.48325" lon="1.05543">
        <ele>89</ele>
        <time>2012-01-30T09:07:17Z</time>
      </trkpt>
      <trkpt lat="49.48327" lon="1.05534">
        <ele>89</ele>
        <time>2012-01-30T09:07:18Z</time>
      </trkpt>
      <trkpt lat="49.48328" lon="1.05522">
        <ele>87</ele>
        <time>2012-01-30T09:07:20Z</time>
      </trkpt>
      <trkpt lat="49.48328" lon="1.05509">
        <ele>81</ele>
        <time>2012-01-30T09:07:22Z</time>
      </trkpt>
      <trkpt lat="49.48328" lon="1.05496">
        <ele>81</ele>
        <time>2012-01-30T09:07:24Z</time>
      </trkpt>
      <trkpt lat="49.4833" lon="1.05489">
        <ele>80</ele>
        <time>2012-01-30T09:07:25Z</time>
      </trkpt>
      <trkpt lat="49.4833" lon="1.05482">
        <ele>79</ele>
        <time>2012-01-30T09:07:26Z</time>
      </trkpt>
      <trkpt lat="49.48332" lon="1.05469">
        <ele>76</ele>
        <time>2012-01-30T09:07:28Z</time>
      </trkpt>
      <trkpt lat="49.48333" lon="1.05458">
        <ele>75</ele>
        <time>2012-01-30T09:07:30Z</time>
      </trkpt>
      <trkpt lat="49.48334" lon="1.05448">
        <ele>72</ele>
        <time>2012-01-30T09:07:32Z</time>
      </trkpt>
      <trkpt lat="49.48334" lon="1.0544">
        <ele>75</ele>
        <time>2012-01-30T09:07:34Z</time>
      </trkpt>
      <trkpt lat="49.48334" lon="1.05431">
        <ele>76</ele>
        <time>2012-01-30T09:07:37Z</time>
      </trkpt>
      <trkpt lat="49.48334" lon="1.05424">
        <ele>67</ele>
        <time>2012-01-30T09:07:40Z</time>
      </trkpt>
      <trkpt lat="49.48338" lon="1.0543">
        <ele>85</ele>
        <time>2012-01-30T09:07:42Z</time>
      </trkpt>
      <trkpt lat="49.48343" lon="1.05436">
        <ele>86</ele>
        <time>2012-01-30T09:07:45Z</time>
      </trkpt>
      <trkpt lat="49.48346" lon="1.05442">
        <ele>90</ele>
        <time>2012-01-30T09:07:50Z</time>
      </trkpt>
      <trkpt lat="49.48343" lon="1.05448">
        <ele>90</ele>
        <time>2012-01-30T09:08:19Z</time>
      </trkpt>
      <trkpt lat="49.48339" lon="1.05452">
        <ele>88</ele>
        <time>2012-01-30T09:08:23Z</time>
      </trkpt>
      <trkpt lat="49.48338" lon="1.05439">
        <ele>72</ele>
        <time>2012-01-30T09:08:28Z</time>
      </trkpt>
      <trkpt lat="49.48339" lon="1.05428">
        <ele>70</ele>
        <time>2012-01-30T09:08:30Z</time>
      </trkpt>
      <trkpt lat="49.4834" lon="1.05419">
        <ele>70</ele>
        <time>2012-01-30T09:08:32Z</time>
      </trkpt>
      <trkpt lat="49.4834" lon="1.0541">
        <ele>69</ele>
        <time>2012-01-30T09:08:34Z</time>
      </trkpt>
      <trkpt lat="49.4834" lon="1.05402">
        <ele>77</ele>
        <time>2012-01-30T09:08:36Z</time>
      </trkpt>
      <trkpt lat="49.4834" lon="1.05395">
        <ele>76</ele>
        <time>2012-01-30T09:08:38Z</time>
      </trkpt>
      <trkpt lat="49.4834" lon="1.05387">
        <ele>77</ele>
        <time>2012-01-30T09:08:40Z</time>
      </trkpt>
      <trkpt lat="49.4834" lon="1.05376">
        <ele>88</ele>
        <time>2012-01-30T09:08:42Z</time>
      </trkpt>
      <trkpt lat="49.48339" lon="1.05367">
        <ele>89</ele>
        <time>2012-01-30T09:08:43Z</time>
      </trkpt>
      <trkpt lat="49.48338" lon="1.05358">
        <ele>89</ele>
        <time>2012-01-30T09:08:44Z</time>
      </trkpt>
      <trkpt lat="49.48338" lon="1.0535">
        <ele>89</ele>
        <time>2012-01-30T09:08:45Z</time>
      </trkpt>
      <trkpt lat="49.48338" lon="1.05343">
        <ele>85</ele>
        <time>2012-01-30T09:08:46Z</time>
      </trkpt>
      <trkpt lat="49.48338" lon="1.05336">
        <ele>85</ele>
        <time>2012-01-30T09:08:47Z</time>
      </trkpt>
      <trkpt lat="49.48338" lon="1.05324">
        <ele>81</ele>
        <time>2012-01-30T09:08:49Z</time>
      </trkpt>
      <trkpt lat="49.48338" lon="1.05314">
        <ele>80</ele>
        <time>2012-01-30T09:08:51Z</time>
      </trkpt>
      <trkpt lat="49.48338" lon="1.05304">
        <ele>79</ele>
        <time>2012-01-30T09:08:53Z</time>
      </trkpt>
      <trkpt lat="49.48339" lon="1.05295">
        <ele>77</ele>
        <time>2012-01-30T09:08:55Z</time>
      </trkpt>
      <trkpt lat="49.48339" lon="1.05286">
        <ele>82</ele>
        <time>2012-01-30T09:08:57Z</time>
      </trkpt>
      <trkpt lat="49.48338" lon="1.05274">
        <ele>80</ele>
        <time>2012-01-30T09:08:59Z</time>
      </trkpt>
      <trkpt lat="49.48337" lon="1.05266">
        <ele>77</ele>
        <time>2012-01-30T09:09:00Z</time>
      </trkpt>
      <trkpt lat="49.48336" lon="1.05258">
        <ele>74</ele>
        <time>2012-01-30T09:09:01Z</time>
      </trkpt>
      <trkpt lat="49.48335" lon="1.0525">
        <ele>74</ele>
        <time>2012-01-30T09:09:02Z</time>
      </trkpt>
      <trkpt lat="49.48333" lon="1.05242">
        <ele>73</ele>
        <time>2012-01-30T09:09:03Z</time>
      </trkpt>
      <trkpt lat="49.48332" lon="1.05235">
        <ele>74</ele>
        <time>2012-01-30T09:09:04Z</time>
      </trkpt>
      <trkpt lat="49.48331" lon="1.05226">
        <ele>71</ele>
        <time>2012-01-30T09:09:05Z</time>
      </trkpt>
      <trkpt lat="49.48329" lon="1.05219">
        <ele>70</ele>
        <time>2012-01-30T09:09:06Z</time>
      </trkpt>
      <trkpt lat="49.48328" lon="1.05212">
        <ele>70</ele>
        <time>2012-01-30T09:09:07Z</time>
      </trkpt>
      <trkpt lat="49.48327" lon="1.05204">
        <ele>75</ele>
        <time>2012-01-30T09:09:08Z</time>
      </trkpt>
      <trkpt lat="49.48326" lon="1.05189">
        <ele>72</ele>
        <time>2012-01-30T09:09:10Z</time>
      </trkpt>
      <trkpt lat="49.48326" lon="1.05181">
        <ele>70</ele>
        <time>2012-01-30T09:09:11Z</time>
      </trkpt>
      <trkpt lat="49.48325" lon="1.05168">
        <ele>72</ele>
        <time>2012-01-30T09:09:13Z</time>
      </trkpt>
      <trkpt lat="49.48324" lon="1.05156">
        <ele>76</ele>
        <time>2012-01-30T09:09:15Z</time>
      </trkpt>
      <trkpt lat="49.48325" lon="1.05145">
        <ele>81</ele>
        <time>2012-01-30T09:09:17Z</time>
      </trkpt>
      <trkpt lat="49.48326" lon="1.05138">
        <ele>81</ele>
        <time>2012-01-30T09:09:19Z</time>
      </trkpt>
      <trkpt lat="49.48328" lon="1.05129">
        <ele>80</ele>
        <time>2012-01-30T09:09:22Z</time>
      </trkpt>
      <trkpt lat="49.48333" lon="1.05123">
        <ele>80</ele>
        <time>2012-01-30T09:09:24Z</time>
      </trkpt>
      <trkpt lat="49.48339" lon="1.05118">
        <ele>80</ele>
        <time>2012-01-30T09:09:26Z</time>
      </trkpt>
      <trkpt lat="49.48346" lon="1.05112">
        <ele>78</ele>
        <time>2012-01-30T09:09:28Z</time>
      </trkpt>
      <trkpt lat="49.48366" lon="1.05023">
        <ele>80</ele>
        <time>2012-01-30T09:09:44Z</time>
      </trkpt>
      <trkpt lat="49.48374" lon="1.05013">
        <ele>82</ele>
        <time>2012-01-30T09:09:45Z</time>
      </trkpt>
      <trkpt lat="49.48378" lon="1.05005">
        <ele>86</ele>
        <time>2012-01-30T09:09:46Z</time>
      </trkpt>
      <trkpt lat="49.48385" lon="1.04994">
        <ele>85</ele>
        <time>2012-01-30T09:09:47Z</time>
      </trkpt>
      <trkpt lat="49.48388" lon="1.04988">
        <ele>86</ele>
        <time>2012-01-30T09:09:48Z</time>
      </trkpt>
      <trkpt lat="49.48394" lon="1.0498">
        <ele>83</ele>
        <time>2012-01-30T09:09:50Z</time>
      </trkpt>
      <trkpt lat="49.48401" lon="1.04973">
        <ele>84</ele>
        <time>2012-01-30T09:09:52Z</time>
      </trkpt>
      <trkpt lat="49.48408" lon="1.04966">
        <ele>84</ele>
        <time>2012-01-30T09:09:54Z</time>
      </trkpt>
      <trkpt lat="49.48412" lon="1.0496">
        <ele>84</ele>
        <time>2012-01-30T09:09:55Z</time>
      </trkpt>
      <trkpt lat="49.48417" lon="1.04953">
        <ele>82</ele>
        <time>2012-01-30T09:09:56Z</time>
      </trkpt>
      <trkpt lat="49.48424" lon="1.04944">
        <ele>81</ele>
        <time>2012-01-30T09:09:58Z</time>
      </trkpt>
      <trkpt lat="49.48429" lon="1.04933">
        <ele>78</ele>
        <time>2012-01-30T09:10:00Z</time>
      </trkpt>
      <trkpt lat="49.48435" lon="1.04922">
        <ele>81</ele>
        <time>2012-01-30T09:10:02Z</time>
      </trkpt>
      <trkpt lat="49.48438" lon="1.04917">
        <ele>83</ele>
        <time>2012-01-30T09:10:03Z</time>
      </trkpt>
      <trkpt lat="49.48441" lon="1.04911">
        <ele>81</ele>
        <time>2012-01-30T09:10:04Z</time>
      </trkpt>
      <trkpt lat="49.48444" lon="1.04904">
        <ele>84</ele>
        <time>2012-01-30T09:10:05Z</time>
      </trkpt>
      <trkpt lat="49.48447" lon="1.04898">
        <ele>83</ele>
        <time>2012-01-30T09:10:06Z</time>
      </trkpt>
      <trkpt lat="49.4845" lon="1.04892">
        <ele>82</ele>
        <time>2012-01-30T09:10:07Z</time>
      </trkpt>
      <trkpt lat="49.48454" lon="1.04881">
        <ele>82</ele>
        <time>2012-01-30T09:10:09Z</time>
      </trkpt>
      <trkpt lat="49.48459" lon="1.0487">
        <ele>80</ele>
        <time>2012-01-30T09:10:11Z</time>
      </trkpt>
      <trkpt lat="49.48462" lon="1.04858">
        <ele>84</ele>
        <time>2012-01-30T09:10:13Z</time>
      </trkpt>
      <trkpt lat="49.48464" lon="1.04849">
        <ele>79</ele>
        <time>2012-01-30T09:10:15Z</time>
      </trkpt>
      <trkpt lat="49.48458" lon="1.04852">
        <ele>76</ele>
        <time>2012-01-30T09:10:20Z</time>
      </trkpt>
      <trkpt lat="49.48457" lon="1.04842">
        <ele>67</ele>
        <time>2012-01-30T09:10:24Z</time>
      </trkpt>
      <trkpt lat="49.48458" lon="1.04835">
        <ele>66</ele>
        <time>2012-01-30T09:10:26Z</time>
      </trkpt>
      <trkpt lat="49.4846" lon="1.04828">
        <ele>67</ele>
        <time>2012-01-30T09:10:29Z</time>
      </trkpt>
      <trkpt lat="49.48463" lon="1.0482">
        <ele>74</ele>
        <time>2012-01-30T09:10:33Z</time>
      </trkpt>
      <trkpt lat="49.48462" lon="1.04813">
        <ele>72</ele>
        <time>2012-01-30T09:10:35Z</time>
      </trkpt>
      <trkpt lat="49.48461" lon="1.04801">
        <ele>78</ele>
        <time>2012-01-30T09:10:38Z</time>
      </trkpt>
      <trkpt lat="49.48483" lon="1.04767">
        <ele>75</ele>
        <time>2012-01-30T09:10:49Z</time>
      </trkpt>
      <trkpt lat="49.48487" lon="1.04765">
        <ele>77</ele>
        <time>2012-01-30T09:10:50Z</time>
      </trkpt>
      <trkpt lat="49.48492" lon="1.04763">
        <ele>78</ele>
        <time>2012-01-30T09:10:51Z</time>
      </trkpt>
      <trkpt lat="49.48499" lon="1.04761">
        <ele>76</ele>
        <time>2012-01-30T09:10:53Z</time>
      </trkpt>
      <trkpt lat="49.48506" lon="1.04757">
        <ele>75</ele>
        <time>2012-01-30T09:10:55Z</time>
      </trkpt>
      <trkpt lat="49.48513" lon="1.04754">
        <ele>76</ele>
        <time>2012-01-30T09:10:57Z</time>
      </trkpt>
      <trkpt lat="49.4852" lon="1.04751">
        <ele>87</ele>
        <time>2012-01-30T09:10:59Z</time>
      </trkpt>
      <trkpt lat="49.48529" lon="1.04751">
        <ele>91</ele>
        <time>2012-01-30T09:11:01Z</time>
      </trkpt>
      <trkpt lat="49.48535" lon="1.04751">
        <ele>90</ele>
        <time>2012-01-30T09:11:03Z</time>
      </trkpt>
      <trkpt lat="49.48541" lon="1.04749">
        <ele>90</ele>
        <time>2012-01-30T09:11:05Z</time>
      </trkpt>
      <trkpt lat="49.48546" lon="1.04746">
        <ele>87</ele>
        <time>2012-01-30T09:11:07Z</time>
      </trkpt>
      <trkpt lat="49.48551" lon="1.04742">
        <ele>82</ele>
        <time>2012-01-30T09:11:09Z</time>
      </trkpt>
      <trkpt lat="49.48555" lon="1.04738">
        <ele>83</ele>
        <time>2012-01-30T09:11:11Z</time>
      </trkpt>
      <trkpt lat="49.4856" lon="1.04734">
        <ele>80</ele>
        <time>2012-01-30T09:11:13Z</time>
      </trkpt>
      <trkpt lat="49.48566" lon="1.0473">
        <ele>82</ele>
        <time>2012-01-30T09:11:15Z</time>
      </trkpt>
      <trkpt lat="49.48571" lon="1.04726">
        <ele>83</ele>
        <time>2012-01-30T09:11:17Z</time>
      </trkpt>
      <trkpt lat="49.48575" lon="1.0472">
        <ele>80</ele>
        <time>2012-01-30T09:11:19Z</time>
      </trkpt>
      <trkpt lat="49.48572" lon="1.04712">
        <ele>82</ele>
        <time>2012-01-30T09:11:23Z</time>
      </trkpt>
      <trkpt lat="49.48573" lon="1.04724">
        <ele>91</ele>
        <time>2012-01-30T09:11:25Z</time>
      </trkpt>
      <trkpt lat="49.48575" lon="1.04737">
        <ele>101</ele>
        <time>2012-01-30T09:11:27Z</time>
      </trkpt>
      <trkpt lat="49.48579" lon="1.04733">
        <ele>88</ele>
        <time>2012-01-30T09:11:31Z</time>
      </trkpt>
      <trkpt lat="49.48586" lon="1.04731">
        <ele>89</ele>
        <time>2012-01-30T09:11:34Z</time>
      </trkpt>
      <trkpt lat="49.48591" lon="1.04732">
        <ele>86</ele>
        <time>2012-01-30T09:11:36Z</time>
      </trkpt>
      <trkpt lat="49.48596" lon="1.04734">
        <ele>86</ele>
        <time>2012-01-30T09:11:38Z</time>
      </trkpt>
      <trkpt lat="49.48599" lon="1.04738">
        <ele>88</ele>
        <time>2012-01-30T09:11:40Z</time>
      </trkpt>
      <trkpt lat="49.48598" lon="1.0475">
        <ele>88</ele>
        <time>2012-01-30T09:11:42Z</time>
      </trkpt>
      <trkpt lat="49.48598" lon="1.04758">
        <ele>86</ele>
        <time>2012-01-30T09:11:43Z</time>
      </trkpt>
      <trkpt lat="49.48598" lon="1.04766">
        <ele>85</ele>
        <time>2012-01-30T09:11:44Z</time>
      </trkpt>
      <trkpt lat="49.48599" lon="1.04773">
        <ele>84</ele>
        <time>2012-01-30T09:11:45Z</time>
      </trkpt>
      <trkpt lat="49.486" lon="1.04785">
        <ele>82</ele>
        <time>2012-01-30T09:11:47Z</time>
      </trkpt>
      <trkpt lat="49.48599" lon="1.04795">
        <ele>79</ele>
        <time>2012-01-30T09:11:49Z</time>
      </trkpt>
      <trkpt lat="49.48599" lon="1.04802">
        <ele>84</ele>
        <time>2012-01-30T09:11:51Z</time>
      </trkpt>
      <trkpt lat="49.486" lon="1.04809">
        <ele>87</ele>
        <time>2012-01-30T09:11:53Z</time>
      </trkpt>
      <trkpt lat="49.48606" lon="1.04814">
        <ele>80</ele>
        <time>2012-01-30T09:11:56Z</time>
      </trkpt>
      <trkpt lat="49.48614" lon="1.04814">
        <ele>71</ele>
        <time>2012-01-30T09:11:58Z</time>
      </trkpt>
      <trkpt lat="49.48622" lon="1.04815">
        <ele>80</ele>
        <time>2012-01-30T09:12:00Z</time>
      </trkpt>
      <trkpt lat="49.48627" lon="1.04814">
        <ele>74</ele>
        <time>2012-01-30T09:12:04Z</time>
      </trkpt>
      <trkpt lat="49.48632" lon="1.04811">
        <ele>69</ele>
        <time>2012-01-30T09:12:09Z</time>
      </trkpt>
      <trkpt lat="49.48638" lon="1.04808">
        <ele>70</ele>
        <time>2012-01-30T09:12:13Z</time>
      </trkpt>
      <trkpt lat="49.48642" lon="1.04802">
        <ele>79</ele>
        <time>2012-01-30T09:12:17Z</time>
      </trkpt>
      <trkpt lat="49.48646" lon="1.04795">
        <ele>83</ele>
        <time>2012-01-30T09:12:20Z</time>
      </trkpt>
      <trkpt lat="49.4865" lon="1.04788">
        <ele>86</ele>
        <time>2012-01-30T09:12:24Z</time>
      </trkpt>
      <trkpt lat="49.48652" lon="1.04781">
        <ele>87</ele>
        <time>2012-01-30T09:12:27Z</time>
      </trkpt>
      <trkpt lat="49.48653" lon="1.04774">
        <ele>85</ele>
        <time>2012-01-30T09:12:30Z</time>
      </trkpt>
      <trkpt lat="49.48654" lon="1.04765">
        <ele>86</ele>
        <time>2012-01-30T09:12:33Z</time>
      </trkpt>
      <trkpt lat="49.48656" lon="1.04757">
        <ele>85</ele>
        <time>2012-01-30T09:12:36Z</time>
      </trkpt>
      <trkpt lat="49.48658" lon="1.04749">
        <ele>85</ele>
        <time>2012-01-30T09:12:39Z</time>
      </trkpt>
      <trkpt lat="49.48659" lon="1.04742">
        <ele>83</ele>
        <time>2012-01-30T09:12:41Z</time>
      </trkpt>
      <trkpt lat="49.48655" lon="1.04736">
        <ele>84</ele>
        <time>2012-01-30T09:12:46Z</time>
      </trkpt>
      <trkpt lat="49.48659" lon="1.04732">
        <ele>85</ele>
        <time>2012-01-30T09:12:55Z</time>
      </trkpt>
      <trkpt lat="49.48662" lon="1.04726">
        <ele>89</ele>
        <time>2012-01-30T09:13:15Z</time>
      </trkpt>
      <trkpt lat="49.4866" lon="1.04718">
        <ele>92</ele>
        <time>2012-01-30T09:13:19Z</time>
      </trkpt>
      <trkpt lat="49.48658" lon="1.0471">
        <ele>92</ele>
        <time>2012-01-30T09:13:22Z</time>
      </trkpt>
      <trkpt lat="49.48656" lon="1.04704">
        <ele>89</ele>
        <time>2012-01-30T09:13:25Z</time>
      </trkpt>
      <trkpt lat="49.48654" lon="1.04689">
        <ele>88</ele>
        <time>2012-01-30T09:13:33Z</time>
      </trkpt>
      <trkpt lat="49.48653" lon="1.04682">
        <ele>85</ele>
        <time>2012-01-30T09:13:37Z</time>
      </trkpt>
      <trkpt lat="49.48652" lon="1.04674">
        <ele>86</ele>
        <time>2012-01-30T09:13:41Z</time>
      </trkpt>
      <trkpt lat="49.48651" lon="1.04667">
        <ele>87</ele>
        <time>2012-01-30T09:13:45Z</time>
      </trkpt>
      <trkpt lat="49.48656" lon="1.04661">
        <ele>87</ele>
        <time>2012-01-30T09:13:49Z</time>
      </trkpt>
      <trkpt lat="49.48664" lon="1.04661">
        <ele>88</ele>
        <time>2012-01-30T09:13:51Z</time>
      </trkpt>
      <trkpt lat="49.48672" lon="1.04664">
        <ele>89</ele>
        <time>2012-01-30T09:13:53Z</time>
      </trkpt>
      <trkpt lat="49.48677" lon="1.04667">
        <ele>88</ele>
        <time>2012-01-30T09:13:54Z</time>
      </trkpt>
      <trkpt lat="49.48682" lon="1.0467">
        <ele>90</ele>
        <time>2012-01-30T09:13:55Z</time>
      </trkpt>
      <trkpt lat="49.48688" lon="1.04673">
        <ele>88</ele>
        <time>2012-01-30T09:13:57Z</time>
      </trkpt>
      <trkpt lat="49.48695" lon="1.04678">
        <ele>90</ele>
        <time>2012-01-30T09:13:59Z</time>
      </trkpt>
      <trkpt lat="49.48702" lon="1.04683">
        <ele>88</ele>
        <time>2012-01-30T09:14:01Z</time>
      </trkpt>
      <trkpt lat="49.4871" lon="1.047">
        <ele>89</ele>
        <time>2012-01-30T09:14:03Z</time>
      </trkpt>
      <trkpt lat="49.48715" lon="1.04713">
        <ele>88</ele>
        <time>2012-01-30T09:14:04Z</time>
      </trkpt>
      <trkpt lat="49.4872" lon="1.04724">
        <ele>87</ele>
        <time>2012-01-30T09:14:05Z</time>
      </trkpt>
      <trkpt lat="49.48724" lon="1.04732">
        <ele>87</ele>
        <time>2012-01-30T09:14:06Z</time>
      </trkpt>
      <trkpt lat="49.48727" lon="1.04738">
        <ele>88</ele>
        <time>2012-01-30T09:14:07Z</time>
      </trkpt>
      <trkpt lat="49.48731" lon="1.04743">
        <ele>88</ele>
        <time>2012-01-30T09:14:08Z</time>
      </trkpt>
      <trkpt lat="49.48737" lon="1.04752">
        <ele>89</ele>
        <time>2012-01-30T09:14:10Z</time>
      </trkpt>
      <trkpt lat="49.48743" lon="1.04758">
        <ele>86</ele>
        <time>2012-01-30T09:14:12Z</time>
      </trkpt>
      <trkpt lat="49.48749" lon="1.04763">
        <ele>90</ele>
        <time>2012-01-30T09:14:14Z</time>
      </trkpt>
      <trkpt lat="49.48761" lon="1.04764">
        <ele>85</ele>
        <time>2012-01-30T09:14:18Z</time>
      </trkpt>
      <trkpt lat="49.48767" lon="1.04763">
        <ele>84</ele>
        <time>2012-01-30T09:14:20Z</time>
      </trkpt>
      <trkpt lat="49.48773" lon="1.04762">
        <ele>85</ele>
        <time>2012-01-30T09:14:21Z</time>
      </trkpt>
      <trkpt lat="49.4878" lon="1.04761">
        <ele>86</ele>
        <time>2012-01-30T09:14:22Z</time>
      </trkpt>
      <trkpt lat="49.48784" lon="1.0476">
        <ele>90</ele>
        <time>2012-01-30T09:14:23Z</time>
      </trkpt>
      <trkpt lat="49.48791" lon="1.04757">
        <ele>87</ele>
        <time>2012-01-30T09:14:25Z</time>
      </trkpt>
      <trkpt lat="49.48798" lon="1.04754">
        <ele>89</ele>
        <time>2012-01-30T09:14:27Z</time>
      </trkpt>
      <trkpt lat="49.48803" lon="1.04751">
        <ele>85</ele>
        <time>2012-01-30T09:14:29Z</time>
      </trkpt>
      <trkpt lat="49.4881" lon="1.04744">
        <ele>85</ele>
        <time>2012-01-30T09:14:32Z</time>
      </trkpt>
      <trkpt lat="49.48815" lon="1.0474">
        <ele>87</ele>
        <time>2012-01-30T09:14:34Z</time>
      </trkpt>
      <trkpt lat="49.48821" lon="1.04735">
        <ele>86</ele>
        <time>2012-01-30T09:14:36Z</time>
      </trkpt>
      <trkpt lat="49.48827" lon="1.04729">
        <ele>88</ele>
        <time>2012-01-30T09:14:38Z</time>
      </trkpt>
      <trkpt lat="49.48831" lon="1.04723">
        <ele>83</ele>
        <time>2012-01-30T09:14:39Z</time>
      </trkpt>
      <trkpt lat="49.48835" lon="1.04718">
        <ele>83</ele>
        <time>2012-01-30T09:14:40Z</time>
      </trkpt>
      <trkpt lat="49.48841" lon="1.04713">
        <ele>84</ele>
        <time>2012-01-30T09:14:41Z</time>
      </trkpt>
      <trkpt lat="49.48847" lon="1.0471">
        <ele>84</ele>
        <time>2012-01-30T09:14:42Z</time>
      </trkpt>
      <trkpt lat="49.48854" lon="1.04705">
        <ele>85</ele>
        <time>2012-01-30T09:14:43Z</time>
      </trkpt>
      <trkpt lat="49.4886" lon="1.04702">
        <ele>83</ele>
        <time>2012-01-30T09:14:44Z</time>
      </trkpt>
      <trkpt lat="49.48867" lon="1.04698">
        <ele>84</ele>
        <time>2012-01-30T09:14:45Z</time>
      </trkpt>
      <trkpt lat="49.48874" lon="1.04695">
        <ele>84</ele>
        <time>2012-01-30T09:14:46Z</time>
      </trkpt>
      <trkpt lat="49.48881" lon="1.0469">
        <ele>84</ele>
        <time>2012-01-30T09:14:47Z</time>
      </trkpt>
      <trkpt lat="49.48887" lon="1.04687">
        <ele>86</ele>
        <time>2012-01-30T09:14:48Z</time>
      </trkpt>
      <trkpt lat="49.48892" lon="1.04684">
        <ele>86</ele>
        <time>2012-01-30T09:14:49Z</time>
      </trkpt>
      <trkpt lat="49.48897" lon="1.04682">
        <ele>84</ele>
        <time>2012-01-30T09:14:50Z</time>
      </trkpt>
      <trkpt lat="49.48905" lon="1.04681">
        <ele>81</ele>
        <time>2012-01-30T09:14:52Z</time>
      </trkpt>
      <trkpt lat="49.48914" lon="1.04683">
        <ele>82</ele>
        <time>2012-01-30T09:14:54Z</time>
      </trkpt>
      <trkpt lat="49.48922" lon="1.04685">
        <ele>82</ele>
        <time>2012-01-30T09:14:56Z</time>
      </trkpt>
      <trkpt lat="49.4893" lon="1.04686">
        <ele>85</ele>
        <time>2012-01-30T09:14:58Z</time>
      </trkpt>
      <trkpt lat="49.48943" lon="1.04684">
        <ele>86</ele>
        <time>2012-01-30T09:15:01Z</time>
      </trkpt>
      <trkpt lat="49.48965" lon="1.04674">
        <ele>83</ele>
        <time>2012-01-30T09:15:07Z</time>
      </trkpt>
      <trkpt lat="49.48971" lon="1.04666">
        <ele>88</ele>
        <time>2012-01-30T09:15:09Z</time>
      </trkpt>
      <trkpt lat="49.48976" lon="1.0466">
        <ele>87</ele>
        <time>2012-01-30T09:15:11Z</time>
      </trkpt>
      <trkpt lat="49.48983" lon="1.04656">
        <ele>87</ele>
        <time>2012-01-30T09:15:13Z</time>
      </trkpt>
      <trkpt lat="49.49014" lon="1.04619">
        <ele>80</ele>
        <time>2012-01-30T09:15:31Z</time>
      </trkpt>
      <trkpt lat="49.49009" lon="1.04599">
        <ele>77</ele>
        <time>2012-01-30T09:15:32Z</time>
      </trkpt>
      <trkpt lat="49.49" lon="1.04588">
        <ele>78</ele>
        <time>2012-01-30T09:15:35Z</time>
      </trkpt>
      <trkpt lat="49.48991" lon="1.04575">
        <ele>80</ele>
        <time>2012-01-30T09:15:37Z</time>
      </trkpt>
      <trkpt lat="49.48986" lon="1.04563">
        <ele>77</ele>
        <time>2012-01-30T09:15:38Z</time>
      </trkpt>
      <trkpt lat="49.48983" lon="1.04553">
        <ele>76</ele>
        <time>2012-01-30T09:15:39Z</time>
      </trkpt>
      <trkpt lat="49.48976" lon="1.04533">
        <ele>67</ele>
        <time>2012-01-30T09:15:43Z</time>
      </trkpt>
      <trkpt lat="49.48971" lon="1.04528">
        <ele>60</ele>
        <time>2012-01-30T09:15:45Z</time>
      </trkpt>
      <trkpt lat="49.48965" lon="1.04526">
        <ele>64</ele>
        <time>2012-01-30T09:15:47Z</time>
      </trkpt>
      <trkpt lat="49.48959" lon="1.04521">
        <ele>67</ele>
        <time>2012-01-30T09:15:49Z</time>
      </trkpt>
      <trkpt lat="49.48955" lon="1.04517">
        <ele>67</ele>
        <time>2012-01-30T09:15:50Z</time>
      </trkpt>
      <trkpt lat="49.48947" lon="1.04509">
        <ele>69</ele>
        <time>2012-01-30T09:15:52Z</time>
      </trkpt>
      <trkpt lat="49.48942" lon="1.04506">
        <ele>69</ele>
        <time>2012-01-30T09:15:53Z</time>
      </trkpt>
      <trkpt lat="49.48938" lon="1.04503">
        <ele>68</ele>
        <time>2012-01-30T09:15:54Z</time>
      </trkpt>
      <trkpt lat="49.48931" lon="1.04501">
        <ele>68</ele>
        <time>2012-01-30T09:15:55Z</time>
      </trkpt>
      <trkpt lat="49.48926" lon="1.045">
        <ele>66</ele>
        <time>2012-01-30T09:15:56Z</time>
      </trkpt>
      <trkpt lat="49.48921" lon="1.04498">
        <ele>64</ele>
        <time>2012-01-30T09:15:57Z</time>
      </trkpt>
      <trkpt lat="49.48912" lon="1.04499">
        <ele>66</ele>
        <time>2012-01-30T09:15:59Z</time>
      </trkpt>
      <trkpt lat="49.48907" lon="1.04502">
        <ele>68</ele>
        <time>2012-01-30T09:16:01Z</time>
      </trkpt>
      <trkpt lat="49.48903" lon="1.04498">
        <ele>63</ele>
        <time>2012-01-30T09:16:03Z</time>
      </trkpt>
      <trkpt lat="49.48899" lon="1.04493">
        <ele>69</ele>
        <time>2012-01-30T09:16:06Z</time>
      </trkpt>
      <trkpt lat="49.48893" lon="1.04489">
        <ele>67</ele>
        <time>2012-01-30T09:16:09Z</time>
      </trkpt>
      <trkpt lat="49.48887" lon="1.04485">
        <ele>69</ele>
        <time>2012-01-30T09:16:11Z</time>
      </trkpt>
      <trkpt lat="49.48882" lon="1.04483">
        <ele>67</ele>
        <time>2012-01-30T09:16:13Z</time>
      </trkpt>
      <trkpt lat="49.48874" lon="1.04482">
        <ele>66</ele>
        <time>2012-01-30T09:16:15Z</time>
      </trkpt>
      <trkpt lat="49.48868" lon="1.04482">
        <ele>64</ele>
        <time>2012-01-30T09:16:16Z</time>
      </trkpt>
      <trkpt lat="49.48864" lon="1.04485">
        <ele>63</ele>
        <time>2012-01-30T09:16:17Z</time>
      </trkpt>
      <trkpt lat="49.48859" lon="1.04486">
        <ele>59</ele>
        <time>2012-01-30T09:16:18Z</time>
      </trkpt>
      <trkpt lat="49.48854" lon="1.04487">
        <ele>64</ele>
        <time>2012-01-30T09:16:19Z</time>
      </trkpt>
      <trkpt lat="49.48847" lon="1.04484">
        <ele>65</ele>
        <time>2012-01-30T09:16:20Z</time>
      </trkpt>
      <trkpt lat="49.48841" lon="1.04481">
        <ele>65</ele>
        <time>2012-01-30T09:16:21Z</time>
      </trkpt>
      <trkpt lat="49.48836" lon="1.04482">
        <ele>64</ele>
        <time>2012-01-30T09:16:22Z</time>
      </trkpt>
      <trkpt lat="49.48831" lon="1.04482">
        <ele>62</ele>
        <time>2012-01-30T09:16:23Z</time>
      </trkpt>
      <trkpt lat="49.48826" lon="1.04481">
        <ele>63</ele>
        <time>2012-01-30T09:16:24Z</time>
      </trkpt>
      <trkpt lat="49.4882" lon="1.0448">
        <ele>64</ele>
        <time>2012-01-30T09:16:25Z</time>
      </trkpt>
      <trkpt lat="49.48815" lon="1.04479">
        <ele>65</ele>
        <time>2012-01-30T09:16:26Z</time>
      </trkpt>
      <trkpt lat="49.4881" lon="1.04477">
        <ele>65</ele>
        <time>2012-01-30T09:16:27Z</time>
      </trkpt>
      <trkpt lat="49.48805" lon="1.04475">
        <ele>66</ele>
        <time>2012-01-30T09:16:28Z</time>
      </trkpt>
      <trkpt lat="49.488" lon="1.04472">
        <ele>63</ele>
        <time>2012-01-30T09:16:29Z</time>
      </trkpt>
      <trkpt lat="49.48795" lon="1.04469">
        <ele>65</ele>
        <time>2012-01-30T09:16:30Z</time>
      </trkpt>
      <trkpt lat="49.48791" lon="1.04465">
        <ele>67</ele>
        <time>2012-01-30T09:16:31Z</time>
      </trkpt>
      <trkpt lat="49.48787" lon="1.0446">
        <ele>66</ele>
        <time>2012-01-30T09:16:35Z</time>
      </trkpt>
      <trkpt lat="49.4879" lon="1.04446">
        <ele>62</ele>
        <time>2012-01-30T09:16:38Z</time>
      </trkpt>
      <trkpt lat="49.48792" lon="1.0444">
        <ele>60</ele>
        <time>2012-01-30T09:16:39Z</time>
      </trkpt>
      <trkpt lat="49.48794" lon="1.04434">
        <ele>63</ele>
        <time>2012-01-30T09:16:40Z</time>
      </trkpt>
      <trkpt lat="49.48798" lon="1.04422">
        <ele>66</ele>
        <time>2012-01-30T09:16:42Z</time>
      </trkpt>
      <trkpt lat="49.48801" lon="1.0441">
        <ele>66</ele>
        <time>2012-01-30T09:16:44Z</time>
      </trkpt>
      <trkpt lat="49.48801" lon="1.04398">
        <ele>62</ele>
        <time>2012-01-30T09:16:46Z</time>
      </trkpt>
      <trkpt lat="49.48801" lon="1.04391">
        <ele>60</ele>
        <time>2012-01-30T09:16:48Z</time>
      </trkpt>
      <trkpt lat="49.48802" lon="1.04384">
        <ele>63</ele>
        <time>2012-01-30T09:16:51Z</time>
      </trkpt>
      <trkpt lat="49.48794" lon="1.04399">
        <ele>64</ele>
        <time>2012-01-30T09:16:58Z</time>
      </trkpt>
      <trkpt lat="49.4877" lon="1.04484">
        <ele>66</ele>
        <time>2012-01-30T09:17:20Z</time>
      </trkpt>
      <trkpt lat="49.48765" lon="1.04485">
        <ele>66</ele>
        <time>2012-01-30T09:17:22Z</time>
      </trkpt>
      <trkpt lat="49.48754" lon="1.04478">
        <ele>64</ele>
        <time>2012-01-30T09:17:24Z</time>
      </trkpt>
      <trkpt lat="49.48748" lon="1.04478">
        <ele>67</ele>
        <time>2012-01-30T09:17:25Z</time>
      </trkpt>
      <trkpt lat="49.48744" lon="1.04476">
        <ele>65</ele>
        <time>2012-01-30T09:17:26Z</time>
      </trkpt>
      <trkpt lat="49.48735" lon="1.04474">
        <ele>62</ele>
        <time>2012-01-30T09:17:28Z</time>
      </trkpt>
      <trkpt lat="49.4873" lon="1.04472">
        <ele>61</ele>
        <time>2012-01-30T09:17:29Z</time>
      </trkpt>
      <trkpt lat="49.48722" lon="1.0447">
        <ele>65</ele>
        <time>2012-01-30T09:17:31Z</time>
      </trkpt>
      <trkpt lat="49.48717" lon="1.04469">
        <ele>61</ele>
        <time>2012-01-30T09:17:32Z</time>
      </trkpt>
      <trkpt lat="49.48712" lon="1.04467">
        <ele>59</ele>
        <time>2012-01-30T09:17:33Z</time>
      </trkpt>
      <trkpt lat="49.48707" lon="1.04466">
        <ele>61</ele>
        <time>2012-01-30T09:17:34Z</time>
      </trkpt>
      <trkpt lat="49.48702" lon="1.04465">
        <ele>61</ele>
        <time>2012-01-30T09:17:35Z</time>
      </trkpt>
      <trkpt lat="49.48698" lon="1.04463">
        <ele>62</ele>
        <time>2012-01-30T09:17:36Z</time>
      </trkpt>
      <trkpt lat="49.48693" lon="1.04462">
        <ele>59</ele>
        <time>2012-01-30T09:17:37Z</time>
      </trkpt>
      <trkpt lat="49.48688" lon="1.0446">
        <ele>56</ele>
        <time>2012-01-30T09:17:38Z</time>
      </trkpt>
      <trkpt lat="49.48683" lon="1.0446">
        <ele>55</ele>
        <time>2012-01-30T09:17:39Z</time>
      </trkpt>
      <trkpt lat="49.48675" lon="1.04456">
        <ele>54</ele>
        <time>2012-01-30T09:17:41Z</time>
      </trkpt>
      <trkpt lat="49.48671" lon="1.04454">
        <ele>52</ele>
        <time>2012-01-30T09:17:42Z</time>
      </trkpt>
      <trkpt lat="49.48667" lon="1.04451">
        <ele>51</ele>
        <time>2012-01-30T09:17:43Z</time>
      </trkpt>
      <trkpt lat="49.48662" lon="1.04448">
        <ele>52</ele>
        <time>2012-01-30T09:17:44Z</time>
      </trkpt>
      <trkpt lat="49.48658" lon="1.04445">
        <ele>53</ele>
        <time>2012-01-30T09:17:45Z</time>
      </trkpt>
      <trkpt lat="49.48649" lon="1.0444">
        <ele>56</ele>
        <time>2012-01-30T09:17:47Z</time>
      </trkpt>
      <trkpt lat="49.4864" lon="1.04437">
        <ele>65</ele>
        <time>2012-01-30T09:17:49Z</time>
      </trkpt>
      <trkpt lat="49.48632" lon="1.04434">
        <ele>61</ele>
        <time>2012-01-30T09:17:51Z</time>
      </trkpt>
      <trkpt lat="49.48624" lon="1.04431">
        <ele>59</ele>
        <time>2012-01-30T09:17:53Z</time>
      </trkpt>
      <trkpt lat="49.48617" lon="1.04429">
        <ele>59</ele>
        <time>2012-01-30T09:17:55Z</time>
      </trkpt>
      <trkpt lat="49.4861" lon="1.04427">
        <ele>59</ele>
        <time>2012-01-30T09:17:57Z</time>
      </trkpt>
      <trkpt lat="49.48604" lon="1.04426">
        <ele>56</ele>
        <time>2012-01-30T09:17:59Z</time>
      </trkpt>
      <trkpt lat="49.48596" lon="1.04424">
        <ele>56</ele>
        <time>2012-01-30T09:18:01Z</time>
      </trkpt>
      <trkpt lat="49.48589" lon="1.04422">
        <ele>61</ele>
        <time>2012-01-30T09:18:03Z</time>
      </trkpt>
      <trkpt lat="49.48583" lon="1.04418">
        <ele>57</ele>
        <time>2012-01-30T09:18:05Z</time>
      </trkpt>
      <trkpt lat="49.48577" lon="1.04416">
        <ele>54</ele>
        <time>2012-01-30T09:18:07Z</time>
      </trkpt>
      <trkpt lat="49.48571" lon="1.04413">
        <ele>58</ele>
        <time>2012-01-30T09:18:10Z</time>
      </trkpt>
      <trkpt lat="49.48565" lon="1.0441">
        <ele>49</ele>
        <time>2012-01-30T09:18:12Z</time>
      </trkpt>
      <trkpt lat="49.4856" lon="1.04406">
        <ele>47</ele>
        <time>2012-01-30T09:18:14Z</time>
      </trkpt>
      <trkpt lat="49.48556" lon="1.04403">
        <ele>53</ele>
        <time>2012-01-30T09:18:16Z</time>
      </trkpt>
      <trkpt lat="49.48556" lon="1.04414">
        <ele>53</ele>
        <time>2012-01-30T09:18:19Z</time>
      </trkpt>
      <trkpt lat="49.48557" lon="1.04425">
        <ele>54</ele>
        <time>2012-01-30T09:18:21Z</time>
      </trkpt>
      <trkpt lat="49.48556" lon="1.04432">
        <ele>51</ele>
        <time>2012-01-30T09:18:25Z</time>
      </trkpt>
      <trkpt lat="49.48553" lon="1.04425">
        <ele>57</ele>
        <time>2012-01-30T09:18:29Z</time>
      </trkpt>
      <trkpt lat="49.48555" lon="1.04418">
        <ele>56</ele>
        <time>2012-01-30T09:18:59Z</time>
      </trkpt>
      <trkpt lat="49.48559" lon="1.04414">
        <ele>56</ele>
        <time>2012-01-30T09:19:02Z</time>
      </trkpt>
      <trkpt lat="49.48564" lon="1.04416">
        <ele>56</ele>
        <time>2012-01-30T09:19:06Z</time>
      </trkpt>
      <trkpt lat="49.48569" lon="1.0442">
        <ele>54</ele>
        <time>2012-01-30T09:19:09Z</time>
      </trkpt>
      <trkpt lat="49.48576" lon="1.04426">
        <ele>55</ele>
        <time>2012-01-30T09:19:13Z</time>
      </trkpt>
      <trkpt lat="49.48581" lon="1.04429">
        <ele>55</ele>
        <time>2012-01-30T09:19:16Z</time>
      </trkpt>
      <trkpt lat="49.48587" lon="1.04433">
        <ele>55</ele>
        <time>2012-01-30T09:19:19Z</time>
      </trkpt>
      <trkpt lat="49.48592" lon="1.04435">
        <ele>55</ele>
        <time>2012-01-30T09:19:21Z</time>
      </trkpt>
      <trkpt lat="49.48597" lon="1.04438">
        <ele>54</ele>
        <time>2012-01-30T09:19:23Z</time>
      </trkpt>
      <trkpt lat="49.48603" lon="1.04442">
        <ele>53</ele>
        <time>2012-01-30T09:19:25Z</time>
      </trkpt>
      <trkpt lat="49.48609" lon="1.04446">
        <ele>52</ele>
        <time>2012-01-30T09:19:27Z</time>
      </trkpt>
      <trkpt lat="49.48615" lon="1.0445">
        <ele>55</ele>
        <time>2012-01-30T09:19:29Z</time>
      </trkpt>
      <trkpt lat="49.4862" lon="1.04454">
        <ele>53</ele>
        <time>2012-01-30T09:19:31Z</time>
      </trkpt>
      <trkpt lat="49.48631" lon="1.04462">
        <ele>56</ele>
        <time>2012-01-30T09:19:35Z</time>
      </trkpt>
      <trkpt lat="49.48665" lon="1.04482">
        <ele>54</ele>
        <time>2012-01-30T09:19:47Z</time>
      </trkpt>
      <trkpt lat="49.48673" lon="1.04484">
        <ele>56</ele>
        <time>2012-01-30T09:19:48Z</time>
      </trkpt>
      <trkpt lat="49.4868" lon="1.04485">
        <ele>57</ele>
        <time>2012-01-30T09:19:49Z</time>
      </trkpt>
      <trkpt lat="49.48722" lon="1.04487">
        <ele>57</ele>
        <time>2012-01-30T09:19:55Z</time>
      </trkpt>
      <trkpt lat="49.48728" lon="1.04486">
        <ele>56</ele>
        <time>2012-01-30T09:19:56Z</time>
      </trkpt>
      <trkpt lat="49.48734" lon="1.04484">
        <ele>56</ele>
        <time>2012-01-30T09:19:57Z</time>
      </trkpt>
      <trkpt lat="49.48741" lon="1.04484">
        <ele>58</ele>
        <time>2012-01-30T09:19:58Z</time>
      </trkpt>
      <trkpt lat="49.48747" lon="1.04483">
        <ele>59</ele>
        <time>2012-01-30T09:19:59Z</time>
      </trkpt>
      <trkpt lat="49.48753" lon="1.04482">
        <ele>59</ele>
        <time>2012-01-30T09:20:00Z</time>
      </trkpt>
      <trkpt lat="49.48759" lon="1.04482">
        <ele>58</ele>
        <time>2012-01-30T09:20:01Z</time>
      </trkpt>
      <trkpt lat="49.48764" lon="1.04482">
        <ele>60</ele>
        <time>2012-01-30T09:20:02Z</time>
      </trkpt>
      <trkpt lat="49.4877" lon="1.04482">
        <ele>58</ele>
        <time>2012-01-30T09:20:03Z</time>
      </trkpt>
      <trkpt lat="49.48782" lon="1.04482">
        <ele>59</ele>
        <time>2012-01-30T09:20:05Z</time>
      </trkpt>
      <trkpt lat="49.48786" lon="1.0449">
        <ele>60</ele>
        <time>2012-01-30T09:20:09Z</time>
      </trkpt>
      <trkpt lat="49.4879" lon="1.04498">
        <ele>60</ele>
        <time>2012-01-30T09:20:11Z</time>
      </trkpt>
      <trkpt lat="49.48795" lon="1.04507">
        <ele>57</ele>
        <time>2012-01-30T09:20:13Z</time>
      </trkpt>
      <trkpt lat="49.48799" lon="1.04511">
        <ele>57</ele>
        <time>2012-01-30T09:20:14Z</time>
      </trkpt>
      <trkpt lat="49.48808" lon="1.04519">
        <ele>58</ele>
        <time>2012-01-30T09:20:17Z</time>
      </trkpt>
      <trkpt lat="49.48816" lon="1.04524">
        <ele>58</ele>
        <time>2012-01-30T09:20:20Z</time>
      </trkpt>
      <trkpt lat="49.48821" lon="1.04526">
        <ele>57</ele>
        <time>2012-01-30T09:20:22Z</time>
      </trkpt>
      <trkpt lat="49.48828" lon="1.04527">
        <ele>57</ele>
        <time>2012-01-30T09:20:24Z</time>
      </trkpt>
      <trkpt lat="49.48834" lon="1.04527">
        <ele>60</ele>
        <time>2012-01-30T09:20:26Z</time>
      </trkpt>
      <trkpt lat="49.48841" lon="1.04528">
        <ele>56</ele>
        <time>2012-01-30T09:20:28Z</time>
      </trkpt>
      <trkpt lat="49.48849" lon="1.04529">
        <ele>55</ele>
        <time>2012-01-30T09:20:30Z</time>
      </trkpt>
      <trkpt lat="49.48857" lon="1.04531">
        <ele>58</ele>
        <time>2012-01-30T09:20:32Z</time>
      </trkpt>
      <trkpt lat="49.48864" lon="1.04532">
        <ele>56</ele>
        <time>2012-01-30T09:20:34Z</time>
      </trkpt>
      <trkpt lat="49.48872" lon="1.04532">
        <ele>56</ele>
        <time>2012-01-30T09:20:36Z</time>
      </trkpt>
      <trkpt lat="49.4888" lon="1.04533">
        <ele>59</ele>
        <time>2012-01-30T09:20:38Z</time>
      </trkpt>
      <trkpt lat="49.48887" lon="1.04533">
        <ele>57</ele>
        <time>2012-01-30T09:20:40Z</time>
      </trkpt>
      <trkpt lat="49.48892" lon="1.04541">
        <ele>59</ele>
        <time>2012-01-30T09:20:44Z</time>
      </trkpt>
      <trkpt lat="49.48894" lon="1.04547">
        <ele>58</ele>
        <time>2012-01-30T09:20:45Z</time>
      </trkpt>
      <trkpt lat="49.48898" lon="1.04556">
        <ele>57</ele>
        <time>2012-01-30T09:20:47Z</time>
      </trkpt>
      <trkpt lat="49.48902" lon="1.04564">
        <ele>57</ele>
        <time>2012-01-30T09:20:49Z</time>
      </trkpt>
      <trkpt lat="49.48904" lon="1.0457">
        <ele>61</ele>
        <time>2012-01-30T09:20:51Z</time>
      </trkpt>
      <trkpt lat="49.48907" lon="1.04575">
        <ele>57</ele>
        <time>2012-01-30T09:20:53Z</time>
      </trkpt>
      <trkpt lat="49.4891" lon="1.04581">
        <ele>54</ele>
        <time>2012-01-30T09:20:55Z</time>
      </trkpt>
      <trkpt lat="49.48914" lon="1.04588">
        <ele>53</ele>
        <time>2012-01-30T09:20:57Z</time>
      </trkpt>
      <trkpt lat="49.48913" lon="1.04604">
        <ele>55</ele>
        <time>2012-01-30T09:21:00Z</time>
      </trkpt>
      <trkpt lat="49.48911" lon="1.0461">
        <ele>56</ele>
        <time>2012-01-30T09:21:01Z</time>
      </trkpt>
      <trkpt lat="49.4891" lon="1.04617">
        <ele>48</ele>
        <time>2012-01-30T09:21:02Z</time>
      </trkpt>
      <trkpt lat="49.48908" lon="1.04627">
        <ele>48</ele>
        <time>2012-01-30T09:21:04Z</time>
      </trkpt>
      <trkpt lat="49.48908" lon="1.04636">
        <ele>50</ele>
        <time>2012-01-30T09:21:07Z</time>
      </trkpt>
      <trkpt lat="49.4891" lon="1.04646">
        <ele>48</ele>
        <time>2012-01-30T09:21:10Z</time>
      </trkpt>
      <trkpt lat="49.48913" lon="1.04653">
        <ele>47</ele>
        <time>2012-01-30T09:21:12Z</time>
      </trkpt>
      <trkpt lat="49.48916" lon="1.04661">
        <ele>51</ele>
        <time>2012-01-30T09:21:15Z</time>
      </trkpt>
      <trkpt lat="49.48937" lon="1.04679">
        <ele>57</ele>
        <time>2012-01-30T09:21:27Z</time>
      </trkpt>
      <trkpt lat="49.48941" lon="1.04674">
        <ele>59</ele>
        <time>2012-01-30T09:21:30Z</time>
      </trkpt>
      <trkpt lat="49.48947" lon="1.04671">
        <ele>56</ele>
        <time>2012-01-30T09:21:31Z</time>
      </trkpt>
      <trkpt lat="49.48954" lon="1.04669">
        <ele>55</ele>
        <time>2012-01-30T09:21:32Z</time>
      </trkpt>
      <trkpt lat="49.48962" lon="1.04666">
        <ele>57</ele>
        <time>2012-01-30T09:21:33Z</time>
      </trkpt>
      <trkpt lat="49.48968" lon="1.04664">
        <ele>57</ele>
        <time>2012-01-30T09:21:34Z</time>
      </trkpt>
      <trkpt lat="49.48974" lon="1.04662">
        <ele>58</ele>
        <time>2012-01-30T09:21:35Z</time>
      </trkpt>
      <trkpt lat="49.48979" lon="1.0466">
        <ele>57</ele>
        <time>2012-01-30T09:21:36Z</time>
      </trkpt>
      <trkpt lat="49.48984" lon="1.04658">
        <ele>57</ele>
        <time>2012-01-30T09:21:37Z</time>
      </trkpt>
      <trkpt lat="49.49002" lon="1.0465">
        <ele>56</ele>
        <time>2012-01-30T09:21:40Z</time>
      </trkpt>
      <trkpt lat="49.49008" lon="1.04648">
        <ele>56</ele>
        <time>2012-01-30T09:21:41Z</time>
      </trkpt>
      <trkpt lat="49.49014" lon="1.04645">
        <ele>55</ele>
        <time>2012-01-30T09:21:42Z</time>
      </trkpt>
      <trkpt lat="49.4902" lon="1.04643">
        <ele>58</ele>
        <time>2012-01-30T09:21:43Z</time>
      </trkpt>
      <trkpt lat="49.49026" lon="1.04643">
        <ele>56</ele>
        <time>2012-01-30T09:21:44Z</time>
      </trkpt>
      <trkpt lat="49.49033" lon="1.04645">
        <ele>54</ele>
        <time>2012-01-30T09:21:45Z</time>
      </trkpt>
      <trkpt lat="49.4904" lon="1.04647">
        <ele>53</ele>
        <time>2012-01-30T09:21:46Z</time>
      </trkpt>
      <trkpt lat="49.49044" lon="1.04655">
        <ele>51</ele>
        <time>2012-01-30T09:21:47Z</time>
      </trkpt>
      <trkpt lat="49.49047" lon="1.04665">
        <ele>50</ele>
        <time>2012-01-30T09:21:48Z</time>
      </trkpt>
      <trkpt lat="49.49048" lon="1.04674">
        <ele>48</ele>
        <time>2012-01-30T09:21:49Z</time>
      </trkpt>
      <trkpt lat="49.4905" lon="1.04684">
        <ele>46</ele>
        <time>2012-01-30T09:21:50Z</time>
      </trkpt>
      <trkpt lat="49.49052" lon="1.04694">
        <ele>48</ele>
        <time>2012-01-30T09:21:51Z</time>
      </trkpt>
      <trkpt lat="49.49053" lon="1.04703">
        <ele>47</ele>
        <time>2012-01-30T09:21:52Z</time>
      </trkpt>
      <trkpt lat="49.49055" lon="1.04712">
        <ele>45</ele>
        <time>2012-01-30T09:21:53Z</time>
      </trkpt>
      <trkpt lat="49.49056" lon="1.04721">
        <ele>43</ele>
        <time>2012-01-30T09:21:54Z</time>
      </trkpt>
      <trkpt lat="49.49058" lon="1.04731">
        <ele>44</ele>
        <time>2012-01-30T09:21:55Z</time>
      </trkpt>
      <trkpt lat="49.49058" lon="1.0474">
        <ele>44</ele>
        <time>2012-01-30T09:21:56Z</time>
      </trkpt>
      <trkpt lat="49.49057" lon="1.04751">
        <ele>45</ele>
        <time>2012-01-30T09:21:57Z</time>
      </trkpt>
      <trkpt lat="49.49055" lon="1.04763">
        <ele>45</ele>
        <time>2012-01-30T09:21:58Z</time>
      </trkpt>
      <trkpt lat="49.49054" lon="1.04773">
        <ele>45</ele>
        <time>2012-01-30T09:21:59Z</time>
      </trkpt>
      <trkpt lat="49.49052" lon="1.04783">
        <ele>48</ele>
        <time>2012-01-30T09:22:00Z</time>
      </trkpt>
      <trkpt lat="49.49051" lon="1.04792">
        <ele>48</ele>
        <time>2012-01-30T09:22:01Z</time>
      </trkpt>
      <trkpt lat="49.4905" lon="1.048">
        <ele>49</ele>
        <time>2012-01-30T09:22:02Z</time>
      </trkpt>
      <trkpt lat="49.49048" lon="1.04808">
        <ele>49</ele>
        <time>2012-01-30T09:22:03Z</time>
      </trkpt>
      <trkpt lat="49.49047" lon="1.04822">
        <ele>50</ele>
        <time>2012-01-30T09:22:05Z</time>
      </trkpt>
      <trkpt lat="49.49046" lon="1.04829">
        <ele>49</ele>
        <time>2012-01-30T09:22:06Z</time>
      </trkpt>
      <trkpt lat="49.49045" lon="1.04842">
        <ele>49</ele>
        <time>2012-01-30T09:22:08Z</time>
      </trkpt>
      <trkpt lat="49.49046" lon="1.04852">
        <ele>50</ele>
        <time>2012-01-30T09:22:10Z</time>
      </trkpt>
      <trkpt lat="49.49046" lon="1.04863">
        <ele>51</ele>
        <time>2012-01-30T09:22:12Z</time>
      </trkpt>
      <trkpt lat="49.49046" lon="1.04878">
        <ele>51</ele>
        <time>2012-01-30T09:22:15Z</time>
      </trkpt>
      <trkpt lat="49.49046" lon="1.04894">
        <ele>49</ele>
        <time>2012-01-30T09:22:19Z</time>
      </trkpt>
      <trkpt lat="49.49044" lon="1.04902">
        <ele>48</ele>
        <time>2012-01-30T09:22:23Z</time>
      </trkpt>
    </trkseg>
  </trk>
</gpx>